M I D A S
Marine Information and Data Acquisition System
Tripno 843 of the Zeeleeuw from 2005-01-28 07:43:36 to 2005-01-28 13:05:56
Back to CruiseResearch ActivitiesStationsMapUnderway DataData graphs

EquipmentUnitsComment
TimeDGPSUTC
LatitudeDGPSDM.mWGS84
LongitudeDGPSDM.mWGS84
TemperatureSBE03/SBE38deg celciusITS90
ConductivitySBE21S/mITS90
SalinitySBE21 Practical Salinity Units
ChlorophylAChelsea fluorimeterg/lCalibrated in Aceton
Missing or incorrect values are displayed as -999
Sea surface data collected by the RV Zeeleeuw from 2005-01-28 07:44:36 to 2005-01-28 13:14:41
                                                                                    Next 1000 lines
Time Latitude Longitude Temperature Conductivity Salinity ChlorophylA
2005-01-28 07:44:46 51°13.595 2°56.093 12.5243 0.015052 0.078175 -0.848668
2005-01-28 07:44:51 51°13.596 2°56.088 12.4802 0.015052 0.078176 -0.882377
2005-01-28 07:44:56 51°13.598 2°56.083 12.512 0.015052 0.078177 -0.882377
2005-01-28 07:45:02 51°13.6 2°56.077 12.5192 0.015052 0.078178 -0.848668
2005-01-28 07:45:06 51°13.601 2°56.072 12.5323 0.015052 0.078179 -0.848668
2005-01-28 07:45:11 51°13.603 2°56.066 12.6151 0.015052 0.078179 -0.848668
2005-01-28 07:45:16 51°13.604 2°56.061 12.622 0.015052 0.078179 -0.882377
2005-01-28 07:45:22 51°13.606 2°56.056 12.6452 0.015052 0.078179 -0.848668
2005-01-28 07:45:26 51°13.606 2°56.054 12.673 0.015052 0.078179 -0.882377
2005-01-28 07:45:31 51°13.607 2°56.052 12.7155 0.015052 0.07818 -0.882377
2005-01-28 07:45:36 51°13.607 2°56.052 12.7071 0.015052 0.078179 -0.882377
2005-01-28 07:45:41 51°13.606 2°56.054 12.7061 0.015052 0.078179 -0.882377
2005-01-28 07:45:46 51°13.605 2°56.056 12.5741 0.015052 0.078184 -0.848668
2005-01-28 07:45:51 51°13.604 2°56.06 12.5262 0.015052 0.078184 -0.882377
2005-01-28 07:45:56 51°13.602 2°56.064 12.5394 0.015052 0.078184 -0.848668
2005-01-28 07:46:01 51°13.6 2°56.069 12.4777 0.015052 0.078184 -0.848668
2005-01-28 07:46:07 51°13.596 2°56.075 12.465 0.015052 0.078184 -0.882377
2005-01-28 07:46:11 51°13.594 2°56.08 12.4879 0.015052 0.078184 -0.882377
2005-01-28 07:46:16 51°13.591 2°56.085 12.5354 0.015052 0.078184 -0.848668
2005-01-28 07:46:21 51°13.588 2°56.09 12.5366 0.015052 0.078184 -0.814958
2005-01-28 07:46:25 51°13.586 2°56.095 12.5582 0.015052 0.078184 -0.882377
2005-01-28 07:46:31 51°13.582 2°56.101 12.5403 0.015052 0.078183 -0.848668
2005-01-28 07:46:36 51°13.579 2°56.107 12.5497 0.015052 0.078184 -0.848668
2005-01-28 07:46:40 51°13.576 2°56.111 12.5407 0.015052 0.078184 -0.848668
2005-01-28 07:46:46 51°13.573 2°56.117 12.5454 0.015052 0.078184 -0.882377
2005-01-28 07:46:50 51°13.57 2°56.122 12.5477 0.015052 0.078185 -0.882377
2005-01-28 07:46:56 51°13.566 2°56.127 12.5504 0.015052 0.078186 -0.848668
2005-01-28 07:47:01 51°13.563 2°56.132 12.5511 0.015052 0.078186 -0.882377
2005-01-28 07:47:06 51°13.56 2°56.137 12.5521 0.015052 0.078187 -0.848668
2005-01-28 07:47:10 51°13.557 2°56.141 12.5516 0.015052 0.078187 -0.848668
2005-01-28 07:47:14 51°13.555 2°56.145 12.5509 0.015052 0.078187 -0.882377
2005-01-28 07:47:20 51°13.551 2°56.152 12.6004 0.015052 0.078187 -0.882377
2005-01-28 07:47:26 51°13.548 2°56.158 12.6132 0.015052 0.078189 -0.848668
2005-01-28 07:47:30 51°13.546 2°56.162 12.7105 0.015052 0.078189 -0.848668
2005-01-28 07:47:36 51°13.542 2°56.169 12.6673 0.015052 0.07819 -0.848668
2005-01-28 07:47:41 51°13.54 2°56.176 12.703 0.015052 0.07819 -0.848668
2005-01-28 07:47:46 51°13.538 2°56.183 12.7155 0.015052 0.078187 -0.882377
2005-01-28 07:47:51 51°13.536 2°56.19 12.748 0.015052 0.07819 -0.882377
2005-01-28 07:47:56 51°13.536 2°56.197 12.7337 0.015052 0.078192 -0.848668
2005-01-28 07:48:00 51°13.535 2°56.204 12.7006 0.015052 0.078193 -0.848668
2005-01-28 07:48:05 51°13.535 2°56.212 12.5523 0.015052 0.078195 -0.882377
2005-01-28 07:48:11 51°13.536 2°56.22 12.31 0.015052 0.078195 -0.882377
2005-01-28 07:48:16 51°13.536 2°56.225 12.5163 0.015052 0.078195 -0.848668
2005-01-28 07:48:21 51°13.537 2°56.229 12.491 0.015052 0.078196 -0.848668
2005-01-28 07:48:25 51°13.537 2°56.232 12.347 0.015052 0.078198 -0.848668
2005-01-28 07:48:31 51°13.537 2°56.234 12.5094 0.015052 0.0782 -0.848668
2005-01-28 07:48:36 51°13.537 2°56.233 12.3342 0.015052 0.078198 -0.848668
2005-01-28 07:48:41 51°13.537 2°56.232 12.5656 0.015052 0.078198 -0.848668
2005-01-28 07:48:46 51°13.536 2°56.23 12.557 0.015052 0.078198 -0.882377
2005-01-28 07:48:50 51°13.535 2°56.227 12.6131 0.015052 0.078199 -0.882377
2005-01-28 07:48:56 51°13.534 2°56.223 12.6012 0.015052 0.078199 -0.882377
2005-01-28 07:49:00 51°13.534 2°56.22 12.616 0.015052 0.0782 -0.848668
2005-01-28 07:49:06 51°13.534 2°56.22 12.6909 0.015052 0.078201 -0.848668
2005-01-28 07:49:11 51°13.534 2°56.221 12.646 0.015052 0.078201 -0.848668
2005-01-28 07:49:16 51°13.535 2°56.223 12.6992 0.015052 0.078201 -0.848668
2005-01-28 07:49:22 51°13.537 2°56.225 12.6097 0.015052 0.078199 -0.848668
2005-01-28 07:49:26 51°13.538 2°56.228 12.3959 0.015052 0.078201 -0.848668
2005-01-28 07:49:31 51°13.54 2°56.229 12.3412 0.015052 0.07819 -0.848668
2005-01-28 07:49:36 51°13.54 2°56.23 12.6375 0.015052 0.078192 -0.848668
2005-01-28 07:49:42 51°13.541 2°56.23 12.2906 0.015052 0.078192 -0.848668
2005-01-28 07:49:46 51°13.54 2°56.229 12.5393 0.015052 0.078195 -0.882377
2005-01-28 07:49:51 51°13.539 2°56.228 12.5294 0.015052 0.078199 -0.848668
2005-01-28 07:49:56 51°13.538 2°56.226 12.5526 0.015052 0.078202 -0.848668
2005-01-28 07:50:02 51°13.537 2°56.225 12.5547 0.015052 0.078202 -0.848668
2005-01-28 07:50:06 51°13.536 2°56.224 12.5875 0.015052 0.078204 -0.848668
2005-01-28 07:50:12 51°13.536 2°56.224 12.5875 0.015052 0.078204 -0.848668
2005-01-28 07:50:16 51°13.537 2°56.225 12.5902 0.015052 0.078204 -0.882377
2005-01-28 07:50:21 51°13.539 2°56.225 12.5684 0.015052 0.078204 -0.882377
2005-01-28 07:50:25 51°13.54 2°56.226 12.3718 0.015052 0.078204 -0.848668
2005-01-28 07:50:31 51°13.541 2°56.226 12.3696 0.015052 0.078206 -0.848668
2005-01-28 07:50:36 51°13.542 2°56.226 12.4189 0.015052 0.078206 -0.882377
2005-01-28 07:50:41 51°13.541 2°56.225 12.378 0.015052 0.078206 -0.882377
2005-01-28 07:50:46 51°13.54 2°56.226 12.498 0.015052 0.078209 -0.882377
2005-01-28 07:50:52 51°13.538 2°56.226 12.529 0.015052 0.078208 -0.848668
2005-01-28 07:50:56 51°13.536 2°56.226 12.5916 0.015052 0.07821 -0.848668
2005-01-28 07:51:01 51°13.534 2°56.226 12.5898 0.015052 0.07821 -0.848668
2005-01-28 07:51:06 51°13.532 2°56.226 12.5782 0.015052 0.078212 -0.848668
2005-01-28 07:51:11 51°13.531 2°56.227 12.6432 0.015052 0.078212 -0.848668
2005-01-28 07:51:17 51°13.532 2°56.226 12.6048 0.015052 0.078211 -0.882377
2005-01-28 07:51:21 51°13.533 2°56.226 12.5888 0.015052 0.078211 -0.848668
2005-01-28 07:51:26 51°13.536 2°56.226 12.5461 0.015052 0.07821 -0.848668
2005-01-28 07:51:31 51°13.537 2°56.225 12.3674 0.015052 0.078211 -0.882377
2005-01-28 07:51:36 51°13.538 2°56.225 12.5444 0.015052 0.078211 -0.882377
2005-01-28 07:51:42 51°13.539 2°56.225 12.5092 0.015052 0.078211 -0.882377
2005-01-28 07:51:45 51°13.539 2°56.225 12.3697 0.015052 0.078213 -0.848668
2005-01-28 07:51:51 51°13.538 2°56.226 12.4916 0.015052 0.078213 -0.848668
2005-01-28 07:51:56 51°13.537 2°56.228 12.5235 0.015052 0.078214 -0.882377
2005-01-28 07:52:00 51°13.535 2°56.229 12.5196 0.015052 0.078215 -0.882377
2005-01-28 07:52:06 51°13.533 2°56.232 12.5245 0.015052 0.078216 -0.848668
2005-01-28 07:52:11 51°13.53 2°56.235 12.5168 0.015052 0.078216 -0.848668
2005-01-28 07:52:16 51°13.528 2°56.239 12.5549 0.015052 0.078216 -0.848668
2005-01-28 07:52:22 51°13.525 2°56.242 12.537 0.015052 0.078216 -0.848668
2005-01-28 07:52:27 51°13.523 2°56.246 12.5454 0.015052 0.078216 -0.882377
2005-01-28 07:52:31 51°13.521 2°56.247 12.5543 0.015052 0.078217 -0.848668
2005-01-28 07:52:36 51°13.52 2°56.249 12.5605 0.015052 0.078217 -0.882377
2005-01-28 07:52:41 51°13.52 2°56.249 12.5547 0.015052 0.078217 -0.882377
2005-01-28 07:52:46 51°13.519 2°56.25 12.5515 0.015052 0.078217 -0.848668
2005-01-28 07:52:50 51°13.519 2°56.25 12.5519 0.015052 0.078217 -0.882377
2005-01-28 07:52:56 51°13.52 2°56.249 12.5376 0.015052 0.078217 -0.882377
2005-01-28 07:53:00 51°13.52 2°56.249 12.5285 0.015052 0.078218 -0.848668
2005-01-28 07:53:05 51°13.52 2°56.248 12.5201 0.015052 0.078218 -0.882377
2005-01-28 07:53:11 51°13.52 2°56.247 12.5232 0.015052 0.078218 -0.882377
2005-01-28 07:53:16 51°13.521 2°56.247 12.5268 0.015052 0.078218 -0.848668
2005-01-28 07:53:21 51°13.521 2°56.246 12.5293 0.015052 0.07822 -0.882377
2005-01-28 07:53:26 51°13.521 2°56.246 12.532 0.015052 0.07822 -0.882377
2005-01-28 07:53:30 51°13.521 2°56.246 12.5316 0.015052 0.078221 -0.848668
2005-01-28 07:53:36 51°13.522 2°56.245 12.5342 0.015052 0.078221 -0.848668
2005-01-28 07:53:40 51°13.522 2°56.244 12.5342 0.015052 0.078221 -0.848668
2005-01-28 07:53:46 51°13.523 2°56.243 12.5363 0.015052 0.078221 -0.848668
2005-01-28 07:53:50 51°13.523 2°56.243 12.5338 0.015052 0.078222 -0.882377
2005-01-28 07:53:56 51°13.524 2°56.242 12.5362 0.015052 0.078221 -0.848668
2005-01-28 07:54:01 51°13.525 2°56.241 12.5336 0.015052 0.078222 -0.848668
2005-01-28 07:54:06 51°13.525 2°56.24 12.5383 0.015052 0.078223 -0.848668
2005-01-28 07:54:10 51°13.526 2°56.239 12.5315 0.015052 0.078223 -0.848668
2005-01-28 07:54:14 51°13.527 2°56.238 12.5391 0.015052 0.078223 -0.848668
2005-01-28 07:54:20 51°13.527 2°56.236 12.5295 0.015052 0.078224 -0.882377
2005-01-28 07:54:26 51°13.528 2°56.235 12.5329 0.015052 0.078225 -0.882377
2005-01-28 07:54:30 51°13.529 2°56.235 12.5339 0.015052 0.078225 -0.848668
2005-01-28 07:54:36 51°13.529 2°56.233 12.5372 0.015052 0.078226 -0.848668
2005-01-28 07:54:41 51°13.53 2°56.232 12.5421 0.015052 0.078226 -0.848668
2005-01-28 07:54:46 51°13.53 2°56.231 12.5389 0.015052 0.078226 -0.814958
2005-01-28 07:54:51 51°13.531 2°56.23 12.5422 0.015052 0.078226 -0.848668
2005-01-28 07:54:56 51°13.531 2°56.228 12.543 0.015052 0.078227 -0.848668
2005-01-28 07:55:01 51°13.532 2°56.227 12.5424 0.015052 0.078228 -0.848668
2005-01-28 07:55:05 51°13.532 2°56.226 12.5421 0.015052 0.078228 -0.848668
2005-01-28 07:55:11 51°13.533 2°56.224 12.5442 0.015052 0.078228 -0.848668
2005-01-28 07:55:16 51°13.534 2°56.222 12.5406 0.015052 0.078228 -0.882377
2005-01-28 07:55:21 51°13.534 2°56.22 12.537 0.015052 0.078229 -0.848668
2005-01-28 07:55:25 51°13.535 2°56.219 12.535 0.015052 0.078229 -0.882377
2005-01-28 07:55:31 51°13.535 2°56.217 12.5359 0.015052 0.078229 -0.882377
2005-01-28 07:55:36 51°13.535 2°56.216 12.5365 0.015052 0.078229 -0.848668
2005-01-28 07:55:41 51°13.536 2°56.214 12.5378 0.015052 0.078229 -0.848668
2005-01-28 07:55:46 51°13.536 2°56.213 12.5385 0.015052 0.07823 -0.848668
2005-01-28 07:55:50 51°13.537 2°56.211 12.5394 0.015052 0.078231 -0.848668
2005-01-28 07:55:56 51°13.537 2°56.21 12.5388 0.015052 0.078231 -0.848668
2005-01-28 07:56:00 51°13.538 2°56.208 12.5384 0.015052 0.078232 -0.848668
2005-01-28 07:56:05 51°13.538 2°56.207 12.5404 0.015052 0.078233 -0.882377
2005-01-28 07:56:11 51°13.538 2°56.205 12.5429 0.015052 0.078233 -0.882377
2005-01-28 07:56:16 51°13.538 2°56.204 12.5487 0.015052 0.078233 -0.848668
2005-01-28 07:56:21 51°13.539 2°56.202 12.5479 0.015052 0.078233 -0.882377
2005-01-28 07:56:26 51°13.539 2°56.199 12.5452 0.015052 0.078233 -0.848668
2005-01-28 07:56:30 51°13.539 2°56.198 12.5443 0.015052 0.078233 -0.882377
2005-01-28 07:56:36 51°13.539 2°56.195 12.5511 0.015052 0.078234 -0.882377
2005-01-28 07:56:40 51°13.54 2°56.193 12.5519 0.015052 0.078234 -0.882377
2005-01-28 07:56:46 51°13.54 2°56.19 12.5477 0.015052 0.078234 -0.882377
2005-01-28 07:56:51 51°13.541 2°56.187 12.5428 0.015052 0.078234 -0.882377
2005-01-28 07:56:56 51°13.541 2°56.185 12.5457 0.015052 0.078235 -0.882377
2005-01-28 07:57:01 51°13.542 2°56.182 12.5482 0.015052 0.078236 -0.882377
2005-01-28 07:57:06 51°13.542 2°56.179 12.5505 0.015052 0.078235 -0.848668
2005-01-28 07:57:11 51°13.543 2°56.176 12.5519 0.015052 0.078235 -0.848668
2005-01-28 07:57:16 51°13.543 2°56.174 12.5534 0.015052 0.078236 -0.848668
2005-01-28 07:57:20 51°13.544 2°56.171 12.5542 0.015052 0.078237 -0.882377
2005-01-28 07:57:26 51°13.545 2°56.167 12.5543 0.015052 0.078237 -0.882377
2005-01-28 07:57:30 51°13.545 2°56.164 12.5546 0.015052 0.078238 -0.848668
2005-01-28 07:57:36 51°13.546 2°56.16 12.555 0.015052 0.078238 -0.848668
2005-01-28 07:57:41 51°13.547 2°56.157 12.5551 0.015052 0.078238 -0.848668
2005-01-28 07:57:45 51°13.548 2°56.154 12.5549 0.015052 0.078237 -0.848668
2005-01-28 07:57:50 51°13.549 2°56.15 12.5524 0.015052 0.078239 -0.848668
2005-01-28 07:57:56 51°13.55 2°56.146 12.5406 0.015052 0.078239 -0.882377
2005-01-28 07:58:00 51°13.551 2°56.142 12.5358 0.015052 0.078239 -0.882377
2005-01-28 07:58:06 51°13.553 2°56.138 12.5338 0.015052 0.07824 -0.882377
2005-01-28 07:58:10 51°13.554 2°56.134 12.542 0.015052 0.07824 -0.882377
2005-01-28 07:58:16 51°13.555 2°56.129 12.5398 0.015052 0.078241 -0.882377
2005-01-28 07:58:21 51°13.557 2°56.125 12.5427 0.015052 0.07824 -0.882377
2005-01-28 07:58:26 51°13.558 2°56.121 12.5465 0.015052 0.078241 -0.848668
2005-01-28 07:58:31 51°13.56 2°56.117 12.5471 0.015052 0.078242 -0.848668
2005-01-28 07:58:36 51°13.561 2°56.112 12.551 0.015052 0.078242 -0.882377
2005-01-28 07:58:41 51°13.563 2°56.108 12.5553 0.015052 0.078242 -0.882377
2005-01-28 07:58:46 51°13.564 2°56.103 12.5526 0.015052 0.078243 -0.848668
2005-01-28 07:58:51 51°13.566 2°56.098 12.5536 0.015052 0.078243 -0.882377
2005-01-28 07:58:56 51°13.568 2°56.092 12.5533 0.015052 0.078242 -0.848668
2005-01-28 07:59:01 51°13.57 2°56.088 12.5555 0.015052 0.078244 -0.882377
2005-01-28 07:59:06 51°13.572 2°56.082 12.5565 0.015052 0.078244 -0.848668
2005-01-28 07:59:10 51°13.574 2°56.078 12.5471 0.015052 0.078244 -0.848668
2005-01-28 07:59:16 51°13.576 2°56.071 12.5312 0.015052 0.078245 -0.848668
2005-01-28 07:59:21 51°13.579 2°56.066 12.5242 0.015052 0.078245 -0.882377
2005-01-28 07:59:25 51°13.581 2°56.061 12.5313 0.015052 0.078245 -0.882377
2005-01-28 07:59:31 51°13.584 2°56.055 12.5258 0.015052 0.078245 -0.848668
2005-01-28 07:59:36 51°13.586 2°56.049 12.5396 0.015052 0.078247 -0.882377
2005-01-28 07:59:41 51°13.589 2°56.043 12.5403 0.015052 0.078247 -0.882377
2005-01-28 07:59:46 51°13.591 2°56.037 12.5462 0.015052 0.078248 -0.882377
2005-01-28 07:59:50 51°13.593 2°56.032 12.5523 0.015052 0.078246 -0.882377
2005-01-28 07:59:56 51°13.597 2°56.025 12.5555 0.015052 0.078248 -0.882377
2005-01-28 08:00:01 51°13.6 2°56.018 12.5569 0.015052 0.078247 -0.848668
2005-01-28 08:00:06 51°13.603 2°56.012 12.5582 0.015052 0.078248 -0.848668
2005-01-28 08:00:10 51°13.606 2°56.005 12.558 0.015052 0.078248 -0.848668
2005-01-28 08:00:16 51°13.61 2°55.997 12.5584 0.015052 0.078248 -0.848668
2005-01-28 08:00:21 51°13.613 2°55.991 12.5594 0.015052 0.078249 -0.882377
2005-01-28 08:00:26 51°13.616 2°55.984 12.5617 0.015052 0.078249 -0.848668
2005-01-28 08:00:31 51°13.62 2°55.977 12.5672 0.015052 0.07825 -0.882377
2005-01-28 08:00:36 51°13.623 2°55.969 12.5753 0.015052 0.078249 -0.882377
2005-01-28 08:00:40 51°13.627 2°55.963 12.5797 0.015052 0.078249 -0.882377
2005-01-28 08:00:46 51°13.631 2°55.954 12.5737 0.015052 0.07825 -0.848668
2005-01-28 08:00:50 51°13.634 2°55.947 12.5695 0.015052 0.07825 -0.848668
2005-01-28 08:00:56 51°13.638 2°55.938 12.5661 0.015052 0.07825 -0.882377
2005-01-28 08:01:01 51°13.641 2°55.931 12.5662 0.015052 0.078252 -0.882377
2005-01-28 08:01:06 51°13.645 2°55.923 12.566 0.015052 0.07825 -0.848668
2005-01-28 08:01:10 51°13.648 2°55.915 12.5743 0.015052 0.07825 -0.848668
2005-01-28 08:01:16 51°13.652 2°55.906 12.5772 0.015052 0.078252 -0.848668
2005-01-28 08:01:21 51°13.656 2°55.897 12.5838 0.015052 0.078252 -0.848668
2005-01-28 08:01:26 51°13.66 2°55.889 12.5737 0.015052 0.078253 -0.882377
2005-01-28 08:01:31 51°13.664 2°55.879 12.5732 0.015052 0.078253 -0.882377
2005-01-28 08:01:36 51°13.668 2°55.869 12.5315 0.015052 0.078252 -0.882377
2005-01-28 08:01:41 51°13.672 2°55.859 12.5275 0.015052 0.078252 -0.882377
2005-01-28 08:01:46 51°13.676 2°55.849 12.498 0.015052 0.078252 -0.848668
2005-01-28 08:01:50 51°13.68 2°55.839 12.4995 0.015052 0.078254 -0.848668
2005-01-28 08:01:56 51°13.685 2°55.828 12.4675 0.015052 0.078254 -0.848668
2005-01-28 08:02:01 51°13.69 2°55.816 12.4699 0.015052 0.078254 -0.848668
2005-01-28 08:02:06 51°13.694 2°55.806 12.4523 0.015052 0.078254 -0.848668
2005-01-28 08:02:10 51°13.699 2°55.797 12.4818 0.015052 0.078254 -0.848668
2005-01-28 08:02:16 51°13.705 2°55.784 12.4873 0.015052 0.078254 -0.848668
2005-01-28 08:02:21 51°13.71 2°55.774 12.4904 0.015052 0.078254 -0.848668
2005-01-28 08:02:26 51°13.715 2°55.764 12.4855 0.015052 0.078255 -0.882377
2005-01-28 08:02:30 51°13.719 2°55.755 12.4824 0.015052 0.078256 -0.882377
2005-01-28 08:02:36 51°13.727 2°55.741 12.4489 0.015052 0.078257 -0.848668
2005-01-28 08:02:41 51°13.733 2°55.731 12.4465 0.015052 0.078257 -0.848668
2005-01-28 08:02:46 51°13.739 2°55.721 12.4378 0.015052 0.078257 -0.848668
2005-01-28 08:02:51 51°13.746 2°55.711 12.3988 0.015052 0.078257 -0.848668
2005-01-28 08:02:56 51°13.752 2°55.702 12.3811 0.015052 0.078257 -0.882377
2005-01-28 08:03:01 51°13.76 2°55.692 12.3498 0.015052 0.078257 -0.848668
2005-01-28 08:03:06 51°13.767 2°55.684 12.4313 0.015052 0.078257 -0.882377
2005-01-28 08:03:10 51°13.774 2°55.677 12.4648 0.015052 0.078257 -0.882377
2005-01-28 08:03:16 51°13.783 2°55.668 12.5078 0.015052 0.078258 -0.848668
2005-01-28 08:03:20 51°13.791 2°55.66 12.535 0.015052 0.078257 -0.848668
2005-01-28 08:03:26 51°13.8 2°55.651 12.5988 0.015052 0.078258 -0.848668
2005-01-28 08:03:30 51°13.808 2°55.645 12.4658 0.015052 0.078258 -0.882377
2005-01-28 08:03:36 51°13.82 2°55.635 12.4125 0.015052 0.078259 -0.882377
2005-01-28 08:03:41 51°13.83 2°55.628 12.58 0.015052 0.078259 -0.882377
2005-01-28 08:03:46 51°13.841 2°55.62 12.6252 0.015052 0.078258 -0.882377
2005-01-28 08:03:51 51°13.852 2°55.612 12.645 0.015052 0.078259 -0.882377
2005-01-28 08:03:56 51°13.862 2°55.604 12.5859 0.015052 0.078258 -0.848668
2005-01-28 08:04:01 51°13.873 2°55.596 12.5891 0.015052 0.078259 -0.848668
2005-01-28 08:04:06 51°13.884 2°55.588 12.5516 0.015052 0.078259 -0.882377
2005-01-28 08:04:11 51°13.895 2°55.58 12.4392 0.015052 0.078259 -0.882377
2005-01-28 08:04:16 51°13.905 2°55.572 12.3763 0.015052 0.07826 -0.848668
2005-01-28 08:04:21 51°13.917 2°55.565 12.5246 0.015052 0.078259 -0.882377
2005-01-28 08:04:26 51°13.928 2°55.557 12.6169 0.015052 0.078259 -0.848668
2005-01-28 08:04:31 51°13.939 2°55.549 12.6212 0.015052 0.078259 -0.848668
2005-01-28 08:04:36 51°13.95 2°55.541 12.5027 0.015052 0.078261 -0.882377
2005-01-28 08:04:40 51°13.961 2°55.533 12.4289 0.015052 0.078261 -0.882377
2005-01-28 08:04:46 51°13.973 2°55.524 12.3923 0.015052 0.078261 -0.882377
2005-01-28 08:04:51 51°13.985 2°55.516 12.5367 0.015052 0.07826 -0.882377
2005-01-28 08:04:56 51°13.998 2°55.507 12.5169 0.015052 0.078261 -0.848668
2005-01-28 08:05:00 51°14.007 2°55.501 12.563 0.015052 0.078261 -0.848668
2005-01-28 08:05:06 51°14.02 2°55.492 12.5709 0.015052 0.078261 -0.848668
2005-01-28 08:05:11 51°14.032 2°55.484 12.553 0.015052 0.078261 -0.848668
2005-01-28 08:05:16 51°14.045 2°55.474 12.5463 0.015052 0.078261 -0.882377
2005-01-28 08:05:20 51°14.054 2°55.468 12.469 0.015052 0.078263 -0.882377
2005-01-28 08:05:26 51°14.067 2°55.459 12.5588 0.015052 0.078261 -0.848668
2005-01-28 08:05:31 51°14.079 2°55.45 12.5717 0.015052 0.078262 -0.848668
2005-01-28 08:05:36 51°14.092 2°55.441 12.5713 0.015052 0.078262 -0.882377
2005-01-28 08:05:40 51°14.103 2°55.432 12.5186 0.015052 0.078262 -0.882377
2005-01-28 08:05:46 51°14.116 2°55.422 12.5271 0.015052 0.078262 -0.848668
2005-01-28 08:05:51 51°14.129 2°55.413 12.6405 0.015052 0.078262 -0.882377
2005-01-28 08:05:56 51°14.141 2°55.404 12.6621 0.015052 0.078263 -0.882377
2005-01-28 08:06:00 51°14.152 2°55.394 12.605 0.015052 0.078263 -0.848668
2005-01-28 08:06:06 51°14.165 2°55.382 12.5147 0.015052 0.078262 -0.848668
2005-01-28 08:06:10 51°14.175 2°55.371 12.5977 0.015052 0.078262 -0.848668
2005-01-28 08:06:16 51°14.188 2°55.358 12.6205 0.015052 0.078262 -0.882377
2005-01-28 08:06:21 51°14.199 2°55.346 12.6269 0.015052 0.078262 -0.882377
2005-01-28 08:06:26 51°14.21 2°55.332 12.5204 0.015052 0.078263 -0.882377
2005-01-28 08:06:31 51°14.222 2°55.317 12.5701 0.015052 0.078262 -0.848668
2005-01-28 08:06:36 51°14.232 2°55.303 12.4704 0.015052 0.078263 -0.848668
2005-01-28 08:06:41 51°14.243 2°55.287 12.6053 0.015052 0.078263 -0.848668
2005-01-28 08:06:46 51°14.253 2°55.272 12.5494 0.015052 0.078263 -0.848668
2005-01-28 08:06:51 51°14.264 2°55.254 12.6387 0.015052 0.078263 -0.882377
2005-01-28 08:06:56 51°14.273 2°55.239 12.3349 0.015052 0.078262 -0.848668
2005-01-28 08:07:01 51°14.283 2°55.221 12.3539 0.015052 0.078262 -0.848668
2005-01-28 08:07:06 51°14.292 2°55.204 12.4164 0.015052 0.078261 -0.882377
2005-01-28 08:07:11 51°14.302 2°55.184 12.2609 0.015052 0.078261 -0.882377
2005-01-28 08:07:16 51°14.311 2°55.167 12.3154 0.015052 0.078261 -0.848668
2005-01-28 08:07:21 51°14.319 2°55.149 12.3098 0.015052 0.078261 -0.848668
2005-01-28 08:07:26 51°14.328 2°55.13 12.3376 0.015052 0.078261 -0.882377
2005-01-28 08:07:30 51°14.335 2°55.114 12.2911 0.015052 0.078261 -0.848668
2005-01-28 08:07:36 51°14.347 2°55.088 12.3772 0.015052 0.078262 -0.882377
2005-01-28 08:07:41 51°14.354 2°55.071 12.2687 0.015052 0.078262 -0.882377
2005-01-28 08:07:46 51°14.363 2°55.05 12.2978 0.015052 0.07826 -0.882377
2005-01-28 08:07:50 51°14.371 2°55.03 12.2192 0.015052 0.07826 -0.848668
2005-01-28 08:07:56 51°14.381 2°55.005 12.1453 0.015052 0.07826 -0.848668
2005-01-28 08:08:01 51°14.389 2°54.987 12.0492 0.015052 0.078258 -0.882377
2005-01-28 08:08:06 51°14.399 2°54.966 12.0479 0.015052 0.07826 -0.848668
2005-01-28 08:08:11 51°14.41 2°54.944 12.0215 0.015052 0.07826 -0.848668
2005-01-28 08:08:16 51°14.42 2°54.925 12.1434 0.015052 0.078258 -0.848668
2005-01-28 08:08:20 51°14.43 2°54.908 12.1341 0.015052 0.078256 -0.848668
2005-01-28 08:08:26 51°14.443 2°54.888 12.1548 0.015052 0.078257 -0.882377
2005-01-28 08:08:30 51°14.453 2°54.873 12.0794 0.015052 0.078257 -0.882377
2005-01-28 08:08:36 51°14.469 2°54.849 12.0744 0.015052 0.078259 -0.882377
2005-01-28 08:08:40 51°14.481 2°54.833 12.1773 0.015052 0.078259 -0.882377
2005-01-28 08:08:46 51°14.495 2°54.813 12.1252 0.015052 0.078258 -0.882377
2005-01-28 08:08:51 51°14.51 2°54.794 12.075 0.015052 0.078259 -0.848668
2005-01-28 08:08:56 51°14.523 2°54.778 12.2075 0.015052 0.07826 -0.848668
2005-01-28 08:09:00 51°14.535 2°54.762 12.1387 0.015052 0.07826 -0.848668
2005-01-28 08:09:06 51°14.55 2°54.743 12.22 0.015052 0.07826 -0.882377
2005-01-28 08:09:11 51°14.565 2°54.724 12.124 0.015052 0.07826 -0.882377
2005-01-28 08:09:16 51°14.578 2°54.709 12.0883 0.015052 0.078261 -0.882377
2005-01-28 08:09:21 51°14.593 2°54.691 12.0836 0.015052 0.078262 -0.882377
2005-01-28 08:09:26 51°14.607 2°54.675 12.0959 0.015052 0.078259 -0.848668
2005-01-28 08:09:31 51°14.622 2°54.659 12.1656 0.015052 0.078261 -0.848668
2005-01-28 08:09:36 51°14.636 2°54.643 12.0278 0.015052 0.078262 -0.848668
2005-01-28 08:09:41 51°14.65 2°54.627 12.0482 0.015052 0.078262 -0.848668
2005-01-28 08:09:46 51°14.666 2°54.611 12.1432 0.015052 0.078263 -0.848668
2005-01-28 08:09:51 51°14.68 2°54.597 12.1222 0.015052 0.078261 -0.882377
2005-01-28 08:09:56 51°14.696 2°54.582 12.1685 0.015052 0.078262 -0.882377
2005-01-28 08:10:01 51°14.711 2°54.568 12.1494 0.015052 0.078262 -0.848668
2005-01-28 08:10:06 51°14.727 2°54.554 12.1682 0.015052 0.078263 -0.848668
2005-01-28 08:10:10 51°14.739 2°54.543 12.0664 0.015052 0.078263 -0.848668
2005-01-28 08:10:16 51°14.759 2°54.527 12.1461 0.015052 0.078263 -0.848668
2005-01-28 08:10:21 51°14.775 2°54.512 12.1132 0.015052 0.078262 -0.882377
2005-01-28 08:10:26 51°14.789 2°54.5 12.156 0.015052 0.078264 -0.882377
2005-01-28 08:10:31 51°14.805 2°54.486 12.138 0.015052 0.078262 -0.882377
2005-01-28 08:10:36 51°14.82 2°54.473 12.072 0.015052 0.078266 -0.882377
2005-01-28 08:10:41 51°14.837 2°54.459 12.0307 0.015052 0.078266 -0.882377
2005-01-28 08:10:46 51°14.853 2°54.445 12.1557 0.015052 0.078266 -0.848668
2005-01-28 08:10:51 51°14.868 2°54.431 12.1851 0.015052 0.078264 -0.882377
2005-01-28 08:10:56 51°14.881 2°54.419 12.0506 0.015052 0.078266 -0.882377
2005-01-28 08:11:01 51°14.898 2°54.405 12.0736 0.015052 0.078265 -0.848668
2005-01-28 08:11:05 51°14.911 2°54.393 12.0731 0.015052 0.078267 -0.848668
2005-01-28 08:11:11 51°14.927 2°54.379 12.118 0.015052 0.078267 -0.848668
2005-01-28 08:11:16 51°14.943 2°54.365 12.0694 0.015052 0.078264 -0.848668
2005-01-28 08:11:21 51°14.957 2°54.351 12.1403 0.015052 0.078267 -0.882377
2005-01-28 08:11:26 51°14.972 2°54.338 12.0604 0.015052 0.078268 -0.882377
2005-01-28 08:11:30 51°14.984 2°54.327 12.0851 0.015052 0.078263 -0.882377
2005-01-28 08:11:36 51°15.002 2°54.31 12.1184 0.015052 0.078262 -0.848668
2005-01-28 08:11:40 51°15.015 2°54.297 12.0451 0.015052 0.078262 -0.848668
2005-01-28 08:11:46 51°15.031 2°54.282 12.1069 0.015052 0.078266 -0.848668
2005-01-28 08:11:50 51°15.043 2°54.271 12.0588 0.015052 0.078263 -0.848668
2005-01-28 08:11:56 51°15.061 2°54.254 12.1368 0.015052 0.078266 -0.848668
2005-01-28 08:12:01 51°15.074 2°54.24 12.1252 0.015052 0.078267 -0.882377
2005-01-28 08:12:06 51°15.088 2°54.227 12.1703 0.015052 0.078264 -0.882377
2005-01-28 08:12:11 51°15.102 2°54.213 12.0577 0.015052 0.078264 -0.882377
2005-01-28 08:12:16 51°15.119 2°54.198 12.105 0.015052 0.078267 -0.882377
2005-01-28 08:12:21 51°15.134 2°54.184 12.02 0.015052 0.078267 -0.814958
2005-01-28 08:12:26 51°15.15 2°54.17 12.0218 0.015052 0.07827 -0.848668
2005-01-28 08:12:30 51°15.162 2°54.159 12.0913 0.015052 0.078271 -0.848668
2005-01-28 08:12:36 51°15.18 2°54.144 12.0597 0.015052 0.078271 -0.882377
2005-01-28 08:12:41 51°15.195 2°54.13 12.1061 0.015052 0.078271 -0.882377
2005-01-28 08:12:46 51°15.21 2°54.116 12.0363 0.015052 0.07827 -0.882377
2005-01-28 08:12:51 51°15.228 2°54.101 12.0614 0.015052 0.078271 -0.848668
2005-01-28 08:12:56 51°15.241 2°54.09 12.1198 0.015052 0.078268 -0.848668
2005-01-28 08:13:01 51°15.257 2°54.076 12.1021 0.015052 0.078268 -0.882377
2005-01-28 08:13:06 51°15.273 2°54.063 12.0852 0.015052 0.07827 -0.882377
2005-01-28 08:13:11 51°15.288 2°54.049 12.0491 0.015052 0.07827 -0.882377
2005-01-28 08:13:16 51°15.304 2°54.034 12.0652 0.015052 0.078274 -0.882377
2005-01-28 08:13:20 51°15.318 2°54.022 12.0566 0.015052 0.078273 -0.882377
2005-01-28 08:13:26 51°15.336 2°54.007 12.1074 0.015052 0.078274 -0.882377
2005-01-28 08:13:31 51°15.349 2°53.995 12.0815 0.015052 0.078272 -0.848668
2005-01-28 08:13:36 51°15.366 2°53.979 12.0677 0.015052 0.078271 -0.848668
2005-01-28 08:13:41 51°15.382 2°53.965 12.0793 0.015052 0.078271 -0.848668
2005-01-28 08:13:46 51°15.398 2°53.951 12.0834 0.015052 0.078273 -0.882377
2005-01-28 08:13:50 51°15.411 2°53.939 12.1116 0.015052 0.078272 -0.882377
2005-01-28 08:13:56 51°15.429 2°53.922 12.0877 0.015052 0.078271 -0.882377
2005-01-28 08:14:00 51°15.444 2°53.909 12.1134 0.015052 0.07827 -0.848668
2005-01-28 08:14:05 51°15.46 2°53.895 12.0679 0.015052 0.07827 -0.848668
2005-01-28 08:14:11 51°15.478 2°53.878 12.1015 0.015052 0.07827 -0.848668
2005-01-28 08:14:16 51°15.493 2°53.864 12.1111 0.015052 0.078272 -0.848668
2005-01-28 08:14:20 51°15.507 2°53.851 12.0601 0.015052 0.078272 -0.882377
2005-01-28 08:14:26 51°15.525 2°53.834 12.0852 0.015052 0.078271 -0.848668
2005-01-28 08:14:30 51°15.537 2°53.823 12.0709 0.015052 0.078272 -0.882377
2005-01-28 08:14:35 51°15.554 2°53.807 12.0607 0.015052 0.078272 -0.848668
2005-01-28 08:14:41 51°15.572 2°53.79 12.1216 0.015052 0.078272 -0.848668
2005-01-28 08:14:46 51°15.586 2°53.776 12.0927 0.015052 0.07827 -0.848668
2005-01-28 08:14:51 51°15.601 2°53.763 12.1132 0.015052 0.078272 -0.882377
2005-01-28 08:14:56 51°15.617 2°53.748 12.1092 0.015052 0.078272 -0.882377
2005-01-28 08:15:01 51°15.633 2°53.733 12.1258 0.015052 0.07827 -0.848668
2005-01-28 08:15:06 51°15.648 2°53.718 12.0995 0.015052 0.078271 -0.882377
2005-01-28 08:15:11 51°15.664 2°53.703 12.1042 0.015052 0.078271 -0.882377
2005-01-28 08:15:16 51°15.681 2°53.687 12.1085 0.015052 0.078273 -0.848668
2005-01-28 08:15:21 51°15.696 2°53.673 12.0862 0.015052 0.078273 -0.882377
2005-01-28 08:15:26 51°15.711 2°53.659 12.0934 0.015052 0.078272 -0.882377
2005-01-28 08:15:31 51°15.725 2°53.645 12.1009 0.015052 0.078272 -0.848668
2005-01-28 08:15:36 51°15.742 2°53.628 12.1054 0.015052 0.078273 -0.882377
2005-01-28 08:15:41 51°15.756 2°53.615 12.0804 0.015052 0.078273 -0.882377
2005-01-28 08:15:46 51°15.773 2°53.6 12.0781 0.015052 0.078271 -0.848668
2005-01-28 08:15:51 51°15.788 2°53.586 12.0856 0.015052 0.07827 -0.848668
2005-01-28 08:15:56 51°15.804 2°53.571 12.1099 0.015052 0.078275 -0.848668
2005-01-28 08:16:00 51°15.817 2°53.559 12.1034 0.015052 0.078275 -0.882377
2005-01-28 08:16:06 51°15.834 2°53.543 12.0988 0.015052 0.078273 -0.848668
2005-01-28 08:16:10 51°15.847 2°53.531 12.1005 0.015052 0.078273 -0.848668
2005-01-28 08:16:16 51°15.866 2°53.513 12.0892 0.015052 0.078273 -0.882377
2005-01-28 08:16:21 51°15.88 2°53.501 12.0841 0.015052 0.078275 -0.848668
2005-01-28 08:16:26 51°15.895 2°53.486 12.0792 0.015052 0.078274 -0.848668
2005-01-28 08:16:31 51°15.911 2°53.472 12.0909 0.015052 0.078275 -0.848668
2005-01-28 08:16:36 51°15.925 2°53.459 12.0955 0.015052 0.078274 -0.882377
2005-01-28 08:16:41 51°15.942 2°53.445 12.104 0.015052 0.078274 -0.882377
2005-01-28 08:16:46 51°15.958 2°53.433 12.1164 0.015052 0.078275 -0.848668
2005-01-28 08:16:50 51°15.971 2°53.422 12.1244 0.015052 0.078275 -0.848668
2005-01-28 08:16:56 51°15.989 2°53.409 12.0842 0.015052 0.078276 -0.848668
2005-01-28 08:17:01 51°16.006 2°53.396 12.1139 0.015052 0.078274 -0.848668
2005-01-28 08:17:06 51°16.021 2°53.384 12.1077 0.015052 0.078274 -0.882377
2005-01-28 08:17:10 51°16.034 2°53.374 12.0907 0.015052 0.078274 -0.882377
2005-01-28 08:17:16 51°16.053 2°53.359 12.1157 0.015052 0.078277 -0.882377
2005-01-28 08:17:21 51°16.07 2°53.347 12.0774 0.015052 0.078276 -0.882377
2005-01-28 08:17:26 51°16.086 2°53.335 12.1213 0.015052 0.078275 -0.848668
2005-01-28 08:17:31 51°16.1 2°53.325 12.0856 0.015052 0.078277 -0.848668
2005-01-28 08:17:36 51°16.118 2°53.311 12.1146 0.015052 0.078277 -0.882377
2005-01-28 08:17:41 51°16.133 2°53.3 12.1091 0.015052 0.078277 -0.882377
2005-01-28 08:17:46 51°16.149 2°53.287 12.1095 0.015052 0.078276 -0.848668
2005-01-28 08:17:51 51°16.167 2°53.274 12.12 0.015052 0.078277 -0.882377
2005-01-28 08:17:56 51°16.183 2°53.261 12.1133 0.015052 0.078277 -0.848668
2005-01-28 08:18:00 51°16.196 2°53.25 12.1293 0.015052 0.078277 -0.848668
2005-01-28 08:18:06 51°16.214 2°53.237 12.1313 0.015052 0.078277 -0.848668
2005-01-28 08:18:11 51°16.228 2°53.225 12.1166 0.015052 0.078277 -0.848668
2005-01-28 08:18:16 51°16.246 2°53.211 12.0998 0.015052 0.078277 -0.848668
2005-01-28 08:18:21 51°16.263 2°53.198 12.1064 0.015052 0.078277 -0.882377
2005-01-28 08:18:26 51°16.279 2°53.185 12.1236 0.015052 0.078276 -0.882377
2005-01-28 08:18:31 51°16.293 2°53.174 12.1072 0.015052 0.078276 -0.848668
2005-01-28 08:18:36 51°16.31 2°53.161 12.1075 0.015052 0.078278 -0.848668
2005-01-28 08:18:41 51°16.327 2°53.148 12.1346 0.015052 0.078278 -0.848668
2005-01-28 08:18:46 51°16.341 2°53.136 12.097 0.015052 0.07828 -0.882377
2005-01-28 08:18:50 51°16.354 2°53.126 12.0989 0.015052 0.07828 -0.848668
2005-01-28 08:18:56 51°16.375 2°53.11 12.1343 0.015052 0.078276 -0.848668
2005-01-28 08:19:01 51°16.389 2°53.099 12.1254 0.015052 0.078279 -0.882377
2005-01-28 08:19:06 51°16.405 2°53.087 12.1241 0.015052 0.078278 -0.882377
2005-01-28 08:19:10 51°16.417 2°53.078 12.1084 0.015052 0.078278 -0.882377
2005-01-28 08:19:16 51°16.437 2°53.062 12.1157 0.015052 0.07828 -0.848668
2005-01-28 08:19:21 51°16.453 2°53.049 12.1125 0.015052 0.078278 -0.882377
2005-01-28 08:19:26 51°16.469 2°53.037 12.1132 0.015052 0.078281 -0.848668
2005-01-28 08:19:31 51°16.484 2°53.025 12.121 0.015052 0.078281 -0.848668
2005-01-28 08:19:36 51°16.501 2°53.012 12.1232 0.015052 0.07828 -0.848668
2005-01-28 08:19:41 51°16.518 2°52.999 12.1351 0.015052 0.07828 -0.848668
2005-01-28 08:19:46 51°16.533 2°52.988 12.1165 0.015052 0.078279 -0.882377
2005-01-28 08:19:51 51°16.551 2°52.974 12.1348 0.015052 0.07828 -0.882377
2005-01-28 08:19:56 51°16.567 2°52.962 12.1248 0.014948 0.077771 -0.848668
2005-01-28 08:20:00 51°16.58 2°52.952 12.1302 0.015052 0.07828 -0.882377
2005-01-28 08:20:06 51°16.598 2°52.938 12.1295 0.015052 0.078281 -0.848668
2005-01-28 08:20:11 51°16.613 2°52.927 12.1384 0.015052 0.078281 -0.848668
2005-01-28 08:20:16 51°16.63 2°52.914 12.1404 0.015052 0.078281 -0.882377
2005-01-28 08:20:21 51°16.646 2°52.902 12.1199 0.015052 0.078281 -0.848668
2005-01-28 08:20:26 51°16.664 2°52.89 12.1338 0.015052 0.078281 -0.848668
2005-01-28 08:20:31 51°16.677 2°52.879 12.1499 0.015052 0.078281 -0.848668
2005-01-28 08:20:36 51°16.695 2°52.866 12.1441 0.015052 0.07828 -0.848668
2005-01-28 08:20:41 51°16.711 2°52.853 12.1143 0.015052 0.07828 -0.848668
2005-01-28 08:20:46 51°16.728 2°52.84 12.1413 0.015052 0.078283 -0.848668
2005-01-28 08:20:51 51°16.741 2°52.83 12.1259 0.015052 0.078279 -0.882377
2005-01-28 08:20:56 51°16.759 2°52.816 12.1449 0.015052 0.07828 -0.882377
2005-01-28 08:21:01 51°16.775 2°52.806 12.1389 0.015052 0.078282 -0.848668
2005-01-28 08:21:06 51°16.791 2°52.793 12.1552 0.015052 0.078283 -0.848668
2005-01-28 08:21:11 51°16.805 2°52.782 12.1272 0.015052 0.078283 -0.848668
2005-01-28 08:21:16 51°16.823 2°52.77 12.1507 0.015052 0.078282 -0.848668
2005-01-28 08:21:21 51°16.836 2°52.76 12.1502 0.015052 0.078281 -0.848668
2005-01-28 08:21:26 51°16.852 2°52.748 12.1358 0.015052 0.078284 -0.848668
2005-01-28 08:21:31 51°16.866 2°52.737 12.136 0.015052 0.078282 -0.882377
2005-01-28 08:21:36 51°16.883 2°52.724 12.1296 0.015052 0.078283 -0.848668
2005-01-28 08:21:41 51°16.9 2°52.71 12.1299 0.015052 0.078283 -0.848668
2005-01-28 08:21:46 51°16.914 2°52.697 12.136 0.015052 0.078285 -0.882377
2005-01-28 08:21:51 51°16.928 2°52.685 12.1417 0.015052 0.078282 -0.848668
2005-01-28 08:21:56 51°16.943 2°52.671 12.1502 0.015052 0.078284 -0.848668
2005-01-28 08:22:01 51°16.958 2°52.657 12.1364 0.015052 0.078284 -0.848668
2005-01-28 08:22:06 51°16.974 2°52.643 12.1561 0.015052 0.078285 -0.848668
2005-01-28 08:22:11 51°16.989 2°52.629 12.1554 0.015052 0.078285 -0.848668
2005-01-28 08:22:16 51°17.005 2°52.615 12.1605 0.015052 0.078283 -0.848668
2005-01-28 08:22:20 51°17.017 2°52.604 12.1364 0.015052 0.078284 -0.882377
2005-01-28 08:22:24 51°17.029 2°52.593 12.1403 0.015052 0.078285 -0.848668
2005-01-28 08:22:31 51°17.05 2°52.574 12.151 0.015052 0.078286 -0.848668
2005-01-28 08:22:36 51°17.063 2°52.56 12.1454 0.015052 0.078285 -0.848668
2005-01-28 08:22:41 51°17.078 2°52.545 12.1572 0.015052 0.078285 -0.848668
2005-01-28 08:22:45 51°17.091 2°52.532 12.1755 0.015052 0.078288 -0.848668
2005-01-28 08:22:51 51°17.106 2°52.517 12.1624 0.015052 0.078284 -0.882377
2005-01-28 08:22:56 51°17.121 2°52.501 12.1713 0.015052 0.078286 -0.882377
2005-01-28 08:23:01 51°17.134 2°52.488 12.1847 0.015052 0.078291 -0.848668
2005-01-28 08:23:06 51°17.148 2°52.473 12.1795 0.015052 0.078286 -0.848668
2005-01-28 08:23:10 51°17.16 2°52.461 12.1744 0.015052 0.078286 -0.848668
2005-01-28 08:23:15 51°17.176 2°52.444 12.1736 0.015052 0.078292 -0.848668
2005-01-28 08:23:21 51°17.193 2°52.428 12.1797 0.015052 0.078292 -0.848668
2005-01-28 08:23:26 51°17.206 2°52.413 12.1845 0.015052 0.078292 -0.882377
2005-01-28 08:23:31 51°17.22 2°52.399 12.1754 0.015052 0.07829 -0.882377
2005-01-28 08:23:36 51°17.235 2°52.381 12.1757 0.015052 0.078289 -0.848668
2005-01-28 08:23:41 51°17.249 2°52.365 12.181 0.015052 0.078289 -0.848668
2005-01-28 08:23:46 51°17.264 2°52.348 12.1825 0.015052 0.078289 -0.848668
2005-01-28 08:23:51 51°17.276 2°52.333 12.1852 0.015052 0.078288 -0.848668
2005-01-28 08:23:56 51°17.292 2°52.315 12.1844 0.015052 0.078288 -0.848668
2005-01-28 08:24:01 51°17.306 2°52.299 12.1795 0.015052 0.078288 -0.882377
2005-01-28 08:24:06 51°17.322 2°52.282 12.1869 0.015052 0.078287 -0.848668
2005-01-28 08:24:11 51°17.336 2°52.264 12.1891 0.015052 0.078287 -0.848668
2005-01-28 08:24:16 51°17.349 2°52.249 12.1742 0.015052 0.078286 -0.882377
2005-01-28 08:24:20 51°17.362 2°52.234 12.1842 0.015052 0.078288 -0.848668
2005-01-28 08:24:26 51°17.378 2°52.216 12.1776 0.015052 0.078286 -0.848668
2005-01-28 08:24:30 51°17.389 2°52.202 12.192 0.015052 0.078285 -0.848668
2005-01-28 08:24:36 51°17.406 2°52.184 12.1868 0.015052 0.078288 -0.882377
2005-01-28 08:24:40 51°17.419 2°52.168 12.187 0.015052 0.078288 -0.882377
2005-01-28 08:24:46 51°17.434 2°52.149 12.1817 0.015052 0.078287 -0.882377
2005-01-28 08:24:50 51°17.446 2°52.137 12.2026 0.015052 0.078288 -0.814958
2005-01-28 08:24:56 51°17.462 2°52.117 12.1935 0.015052 0.078286 -0.848668
2005-01-28 08:25:00 51°17.476 2°52.102 12.1983 0.015052 0.078285 -0.882377
2005-01-28 08:25:06 51°17.491 2°52.085 12.2016 0.015052 0.078287 -0.848668
2005-01-28 08:25:11 51°17.504 2°52.068 12.1906 0.015052 0.078287 -0.848668
2005-01-28 08:25:16 51°17.519 2°52.048 12.1986 0.015052 0.07829 -0.882377
2005-01-28 08:25:21 51°17.531 2°52.03 12.2018 0.015052 0.078284 -0.848668
2005-01-28 08:25:26 51°17.543 2°52.011 12.1937 0.015052 0.078289 -0.848668
2005-01-28 08:25:31 51°17.556 2°51.99 12.1921 0.015052 0.078288 -0.882377
2005-01-28 08:25:36 51°17.569 2°51.969 12.2009 0.015052 0.078289 -0.848668
2005-01-28 08:25:41 51°17.581 2°51.95 12.1943 0.015052 0.078289 -0.848668
2005-01-28 08:25:46 51°17.593 2°51.93 12.2074 0.015052 0.078286 -0.882377
2005-01-28 08:25:51 51°17.604 2°51.912 12.2103 0.015052 0.078289 -0.882377
2005-01-28 08:25:56 51°17.618 2°51.89 12.2102 0.014948 0.07778 -0.882377
2005-01-28 08:26:00 51°17.628 2°51.871 12.2 0.015052 0.07829 -0.882377
2005-01-28 08:26:05 51°17.64 2°51.849 12.2068 0.015052 0.078291 -0.848668
2005-01-28 08:26:11 51°17.652 2°51.825 12.2128 0.015052 0.078291 -0.848668
2005-01-28 08:26:16 51°17.663 2°51.803 12.2098 0.015052 0.078287 -0.848668
2005-01-28 08:26:21 51°17.674 2°51.781 12.2043 0.015052 0.078291 -0.848668
2005-01-28 08:26:26 51°17.685 2°51.758 12.2053 0.015052 0.078291 -0.848668
2005-01-28 08:26:31 51°17.698 2°51.734 12.2041 0.015052 0.078288 -0.848668
2005-01-28 08:26:36 51°17.708 2°51.713 12.2086 0.015052 0.078294 -0.882377
2005-01-28 08:26:41 51°17.72 2°51.69 12.207 0.015052 0.078294 -0.882377
2005-01-28 08:26:46 51°17.731 2°51.668 12.2246 0.015052 0.078293 -0.848668
2005-01-28 08:26:51 51°17.741 2°51.649 12.2182 0.015052 0.078292 -0.848668
2005-01-28 08:26:56 51°17.753 2°51.625 12.2195 0.015052 0.078293 -0.848668
2005-01-28 08:27:00 51°17.764 2°51.605 12.2184 0.015052 0.07829 -0.848668
2005-01-28 08:27:06 51°17.777 2°51.58 12.2267 0.015052 0.078292 -0.848668
2005-01-28 08:27:10 51°17.786 2°51.562 12.2215 0.015052 0.078292 -0.848668
2005-01-28 08:27:16 51°17.799 2°51.536 12.222 0.015052 0.078291 -0.848668
2005-01-28 08:27:20 51°17.81 2°51.516 12.2375 0.015052 0.078292 -0.882377
2005-01-28 08:27:25 51°17.821 2°51.493 12.228 0.015052 0.078293 -0.848668
2005-01-28 08:27:31 51°17.836 2°51.465 12.2203 0.015052 0.078292 -0.848668
2005-01-28 08:27:36 51°17.846 2°51.444 12.232 0.015052 0.078293 -0.882377
2005-01-28 08:27:40 51°17.855 2°51.425 12.2334 0.015052 0.078293 -0.882377
2005-01-28 08:27:46 51°17.868 2°51.4 12.2298 0.015052 0.078288 -0.848668
2005-01-28 08:27:51 51°17.878 2°51.379 12.2299 0.014948 0.077786 -0.848668
2005-01-28 08:27:56 51°17.892 2°51.353 12.2379 0.015052 0.078295 -0.882377
2005-01-28 08:28:00 51°17.901 2°51.334 12.2393 0.015052 0.078294 -0.848668
2005-01-28 08:28:05 51°17.913 2°51.312 12.2386 0.015052 0.078296 -0.848668
2005-01-28 08:28:11 51°17.925 2°51.285 12.2333 0.015052 0.078296 -0.848668
2005-01-28 08:28:16 51°17.938 2°51.263 12.2438 0.015052 0.078298 -0.848668
2005-01-28 08:28:21 51°17.95 2°51.241 12.2493 0.015052 0.078295 -0.814958
2005-01-28 08:28:26 51°17.961 2°51.22 12.2507 0.014948 0.077787 -0.848668
2005-01-28 08:28:30 51°17.971 2°51.2 12.2476 0.015052 0.078295 -0.848668
2005-01-28 08:28:36 51°17.985 2°51.174 12.2461 0.015052 0.07829 -0.882377
2005-01-28 08:28:41 51°17.997 2°51.15 12.2417 0.015052 0.07829 -0.882377
2005-01-28 08:28:46 51°18.009 2°51.128 12.2492 0.014948 0.077784 -0.882377
2005-01-28 08:28:50 51°18.018 2°51.109 12.2485 0.015052 0.078295 -0.848668
2005-01-28 08:28:56 51°18.032 2°51.082 12.2415 0.014948 0.077788 -0.882377
2005-01-28 08:29:01 51°18.044 2°51.059 12.2472 0.015052 0.07829 -0.882377
2005-01-28 08:29:06 51°18.055 2°51.037 12.2501 0.015052 0.078292 -0.882377
2005-01-28 08:29:11 51°18.066 2°51.013 12.245 0.015052 0.078292 -0.882377
2005-01-28 08:29:16 51°18.079 2°50.989 12.2569 0.015052 0.078294 -0.848668
2005-01-28 08:29:21 51°18.088 2°50.968 12.2548 0.015052 0.078291 -0.814958
2005-01-28 08:29:26 51°18.099 2°50.944 12.2507 0.015052 0.078295 -0.882377
2005-01-28 08:29:30 51°18.108 2°50.925 12.2488 0.015052 0.078294 -0.848668
2005-01-28 08:29:36 51°18.121 2°50.894 12.2534 0.015052 0.078296 -0.848668
2005-01-28 08:29:41 51°18.131 2°50.871 12.2582 0.015052 0.078296 -0.848668
2005-01-28 08:29:46 51°18.141 2°50.846 12.2584 0.015052 0.078294 -0.848668
2005-01-28 08:29:51 51°18.152 2°50.823 12.2636 0.015052 0.078298 -0.848668
2005-01-28 08:29:56 51°18.163 2°50.796 12.2655 0.015052 0.078298 -0.882377
2005-01-28 08:30:01 51°18.173 2°50.774 12.268 0.014948 0.077783 -0.848668
2005-01-28 08:30:06 51°18.183 2°50.75 12.2656 0.015052 0.078292 -0.848668
2005-01-28 08:30:11 51°18.193 2°50.725 12.265 0.015052 0.078292 -0.848668
2005-01-28 08:30:16 51°18.203 2°50.7 12.2585 0.015052 0.078295 -0.848668
2005-01-28 08:30:21 51°18.214 2°50.675 12.2616 0.015052 0.078298 -0.848668
2005-01-28 08:30:26 51°18.224 2°50.652 12.2662 0.014948 0.077781 -0.882377
2005-01-28 08:30:31 51°18.233 2°50.631 12.2744 0.015052 0.078294 -0.848668
2005-01-28 08:30:36 51°18.243 2°50.605 12.2657 0.015052 0.078293 -0.882377
2005-01-28 08:30:41 51°18.255 2°50.577 12.2651 0.015052 0.078293 -0.882377
2005-01-28 08:30:46 51°18.264 2°50.554 12.2664 0.015052 0.078299 -0.882377
2005-01-28 08:30:51 51°18.273 2°50.532 12.2726 0.015052 0.078296 -0.848668
2005-01-28 08:30:56 51°18.283 2°50.507 12.2749 0.015052 0.078297 -0.882377
2005-01-28 08:31:01 51°18.294 2°50.485 12.2836 0.015052 0.0783 -0.848668
2005-01-28 08:31:06 51°18.303 2°50.462 12.2841 0.015052 0.078301 -0.882377
2005-01-28 08:31:11 51°18.313 2°50.439 12.2778 0.015052 0.078301 -0.882377
2005-01-28 08:31:16 51°18.324 2°50.413 12.2814 0.015052 0.078302 -0.882377
2005-01-28 08:31:21 51°18.334 2°50.39 12.2813 0.015052 0.078303 -0.848668
2005-01-28 08:31:26 51°18.345 2°50.365 12.2856 0.015052 0.078304 -0.848668
2005-01-28 08:31:31 51°18.355 2°50.341 12.2921 0.015052 0.078302 -0.848668
2005-01-28 08:31:36 51°18.365 2°50.318 12.2928 0.015052 0.078302 -0.882377
2005-01-28 08:31:41 51°18.375 2°50.294 12.292 0.015052 0.078302 -0.882377
2005-01-28 08:31:46 51°18.386 2°50.269 12.2938 0.014948 0.077794 -0.848668
2005-01-28 08:31:51 51°18.395 2°50.247 12.2968 0.015052 0.078301 -0.848668
2005-01-28 08:31:56 51°18.407 2°50.219 12.2946 0.014948 0.077791 -0.882377
2005-01-28 08:32:01 51°18.417 2°50.194 12.2876 0.015052 0.078301 -0.848668
2005-01-28 08:32:06 51°18.428 2°50.168 12.2976 0.014948 0.077791 -0.848668
2005-01-28 08:32:11 51°18.437 2°50.148 12.3017 0.014948 0.077791 -0.848668
2005-01-28 08:32:16 51°18.448 2°50.12 12.3021 0.015052 0.078295 -0.882377
2005-01-28 08:32:21 51°18.457 2°50.097 12.2994 0.015052 0.078302 -0.882377
2005-01-28 08:32:26 51°18.468 2°50.073 12.3077 0.015052 0.078301 -0.882377
2005-01-28 08:32:31 51°18.477 2°50.052 12.3054 0.015052 0.078304 -0.882377
2005-01-28 08:32:36 51°18.489 2°50.022 12.3038 0.015052 0.078303 -0.882377
2005-01-28 08:32:41 51°18.498 2°50 12.3059 0.015052 0.078303 -0.882377
2005-01-28 08:32:46 51°18.509 2°49.977 12.3073 0.015052 0.078306 -0.848668
2005-01-28 08:32:51 51°18.519 2°49.952 12.3096 0.015052 0.078303 -0.848668
2005-01-28 08:32:56 51°18.529 2°49.928 12.314 0.015052 0.078301 -0.848668
2005-01-28 08:33:01 51°18.539 2°49.904 12.3191 0.014948 0.077794 -0.882377
2005-01-28 08:33:06 51°18.547 2°49.882 12.314 0.014948 0.077791 -0.882377
2005-01-28 08:33:11 51°18.559 2°49.854 12.3144 0.014948 0.077791 -0.882377
2005-01-28 08:33:16 51°18.568 2°49.833 12.3173 0.014948 0.077798 -0.882377
2005-01-28 08:33:21 51°18.579 2°49.809 12.3248 0.015052 0.078306 -0.848668
2005-01-28 08:33:26 51°18.59 2°49.785 12.325 0.014948 0.077797 -0.882377
2005-01-28 08:33:30 51°18.599 2°49.766 12.3263 0.015052 0.078307 -0.848668
2005-01-28 08:33:36 51°18.61 2°49.739 12.3264 0.015052 0.078302 -0.882377
2005-01-28 08:33:40 51°18.62 2°49.717 12.3281 0.015052 0.078302 -0.882377
2005-01-28 08:33:46 51°18.631 2°49.69 12.3345 0.015052 0.078306 -0.882377
2005-01-28 08:33:50 51°18.64 2°49.671 12.3381 0.014948 0.077794 -0.848668
2005-01-28 08:33:56 51°18.651 2°49.646 12.3372 0.014948 0.077797 -0.882377
2005-01-28 08:34:01 51°18.662 2°49.622 12.34 0.015052 0.078303 -0.848668
2005-01-28 08:34:06 51°18.672 2°49.599 12.3432 0.014948 0.077793 -0.848668
2005-01-28 08:34:11 51°18.685 2°49.572 12.3422 0.014948 0.077793 -0.848668
2005-01-28 08:34:16 51°18.694 2°49.551 12.3463 0.014948 0.077795 -0.848668
2005-01-28 08:34:21 51°18.705 2°49.528 12.347 0.015052 0.078305 -0.848668
2005-01-28 08:34:26 51°18.716 2°49.504 12.3481 0.015052 0.078306 -0.882377
2005-01-28 08:34:31 51°18.725 2°49.482 12.3498 0.015052 0.078305 -0.882377
2005-01-28 08:34:36 51°18.736 2°49.457 12.3522 0.014948 0.077793 -0.848668
2005-01-28 08:34:41 51°18.746 2°49.433 12.3516 0.014948 0.077793 -0.848668
2005-01-28 08:34:46 51°18.758 2°49.408 12.3514 0.014948 0.077791 -0.848668
2005-01-28 08:34:50 51°18.766 2°49.39 12.3551 0.014948 0.077795 -0.848668
2005-01-28 08:34:56 51°18.779 2°49.36 12.3636 0.014948 0.077795 -0.848668
2005-01-28 08:35:00 51°18.787 2°49.34 12.36 0.014948 0.077801 -0.848668
2005-01-28 08:35:06 51°18.799 2°49.313 12.3615 0.015052 0.078306 -0.882377
2005-01-28 08:35:11 51°18.81 2°49.289 12.3636 0.015052 0.078306 -0.882377
2005-01-28 08:35:16 51°18.819 2°49.266 12.3637 0.014948 0.077798 -0.848668
2005-01-28 08:35:21 51°18.831 2°49.241 12.3701 0.015052 0.078306 -0.882377
2005-01-28 08:35:26 51°18.839 2°49.219 12.3681 0.015052 0.078308 -0.848668
2005-01-28 08:35:31 51°18.849 2°49.195 12.3725 0.015052 0.078304 -0.848668
2005-01-28 08:35:36 51°18.86 2°49.171 12.3708 0.014948 0.077798 -0.882377
2005-01-28 08:35:41 51°18.871 2°49.147 12.3727 0.014948 0.077798 -0.882377
2005-01-28 08:35:46 51°18.882 2°49.124 12.3765 0.014948 0.077799 -0.882377
2005-01-28 08:35:51 51°18.893 2°49.1 12.3772 0.014948 0.077798 -0.882377
2005-01-28 08:35:56 51°18.905 2°49.074 12.3789 0.014948 0.077799 -0.882377
2005-01-28 08:36:01 51°18.914 2°49.052 12.38 0.014948 0.077799 -0.848668
2005-01-28 08:36:06 51°18.925 2°49.027 12.3811 0.015052 0.07831 -0.848668
2005-01-28 08:36:11 51°18.936 2°49.004 12.3854 0.015052 0.07831 -0.848668
2005-01-28 08:36:16 51°18.946 2°48.981 12.3855 0.015052 0.078307 -0.848668
2005-01-28 08:36:21 51°18.957 2°48.956 12.3903 0.014948 0.0778 -0.882377
2005-01-28 08:36:26 51°18.968 2°48.932 12.3928 0.014948 0.077798 -0.882377
2005-01-28 08:36:30 51°18.976 2°48.914 12.3919 0.015052 0.07831 -0.848668
2005-01-28 08:36:36 51°18.989 2°48.884 12.3931 0.015052 0.078309 -0.848668
2005-01-28 08:36:41 51°19 2°48.858 12.3921 0.015052 0.078309 -0.848668
2005-01-28 08:36:46 51°19.011 2°48.833 12.3982 0.014948 0.077803 -0.848668
2005-01-28 08:36:51 51°19.02 2°48.813 12.3997 0.014948 0.077797 -0.882377
2005-01-28 08:36:56 51°19.032 2°48.785 12.4004 0.015052 0.078309 -0.848668
2005-01-28 08:37:00 51°19.041 2°48.766 12.4012 0.014948 0.077802 -0.848668
2005-01-28 08:37:06 51°19.053 2°48.74 12.4057 0.015052 0.078312 -0.882377
2005-01-28 08:37:11 51°19.063 2°48.717 12.4091 0.015052 0.078312 -0.882377
2005-01-28 08:37:16 51°19.072 2°48.695 12.4124 0.015052 0.078311 -0.848668
2005-01-28 08:37:21 51°19.082 2°48.671 12.4101 0.014948 0.077805 -0.848668
2005-01-28 08:37:26 51°19.093 2°48.644 12.4116 0.014948 0.077805 -0.882377
2005-01-28 08:37:30 51°19.1 2°48.628 12.4153 0.014948 0.077808 -0.848668
2005-01-28 08:37:36 51°19.112 2°48.6 12.4167 0.014948 0.077807 -0.882377
2005-01-28 08:37:41 51°19.123 2°48.574 12.4172 0.014948 0.077807 -0.882377
2005-01-28 08:37:46 51°19.133 2°48.552 12.4224 0.014948 0.077807 -0.848668
2005-01-28 08:37:50 51°19.14 2°48.534 12.4242 0.014948 0.077804 -0.848668
2005-01-28 08:37:56 51°19.152 2°48.507 12.4249 0.014948 0.077805 -0.848668
2005-01-28 08:38:00 51°19.161 2°48.485 12.4267 0.014948 0.077807 -0.848668
2005-01-28 08:38:06 51°19.172 2°48.459 12.4268 0.014948 0.077806 -0.848668
2005-01-28 08:38:11 51°19.182 2°48.436 12.4276 0.014948 0.077806 -0.848668
2005-01-28 08:38:16 51°19.195 2°48.407 12.4324 0.015052 0.078316 -0.882377
2005-01-28 08:38:21 51°19.205 2°48.386 12.4354 0.014948 0.077804 -0.848668
2005-01-28 08:38:25 51°19.213 2°48.365 12.4356 0.014948 0.077804 -0.882377
2005-01-28 08:38:31 51°19.225 2°48.335 12.4378 0.014948 0.077802 -0.882377
2005-01-28 08:38:36 51°19.234 2°48.315 12.4392 0.014948 0.077804 -0.848668
2005-01-28 08:38:41 51°19.245 2°48.29 12.4418 0.014948 0.077804 -0.848668
2005-01-28 08:38:46 51°19.254 2°48.266 12.4422 0.014948 0.077806 -0.814958
2005-01-28 08:38:51 51°19.266 2°48.24 12.4432 0.015052 0.078319 -0.848668
2005-01-28 08:38:56 51°19.275 2°48.217 12.4456 0.014948 0.077805 -0.848668
2005-01-28 08:39:01 51°19.285 2°48.193 12.4467 0.014948 0.077805 -0.848668
2005-01-28 08:39:06 51°19.297 2°48.168 12.4496 0.014948 0.077808 -0.882377
2005-01-28 08:39:11 51°19.306 2°48.146 12.452 0.014948 0.077808 -0.882377
2005-01-28 08:39:16 51°19.317 2°48.12 12.4533 0.014948 0.077806 -0.848668
2005-01-28 08:39:21 51°19.327 2°48.097 12.4532 0.014948 0.077804 -0.848668
2005-01-28 08:39:24 51°19.335 2°48.08 12.4556 0.014948 0.077808 -0.848668
2005-01-28 08:39:30 51°19.346 2°48.053 12.4584 0.014948 0.077804 -0.848668
2005-01-28 08:39:36 51°19.358 2°48.024 12.4596 0.014948 0.077808 -0.848668
2005-01-28 08:39:41 51°19.37 2°47.996 12.4618 0.014948 0.077808 -0.848668
2005-01-28 08:39:46 51°19.38 2°47.975 12.4672 0.014948 0.07781 -0.882377
2005-01-28 08:39:51 51°19.388 2°47.955 12.4678 0.014948 0.077806 -0.848668
2005-01-28 08:39:56 51°19.399 2°47.929 12.4688 0.014948 0.07781 -0.848668
2005-01-28 08:40:01 51°19.41 2°47.903 12.4691 0.014948 0.077808 -0.882377
2005-01-28 08:40:05 51°19.419 2°47.882 12.4716 0.014948 0.077811 -0.848668
2005-01-28 08:40:10 51°19.428 2°47.861 12.4744 0.014948 0.077811 -0.848668
2005-01-28 08:40:16 51°19.442 2°47.829 12.4758 0.014948 0.07781 -0.848668
2005-01-28 08:40:21 51°19.452 2°47.806 12.4769 0.014948 0.077809 -0.848668
2005-01-28 08:40:26 51°19.461 2°47.782 12.4786 0.014948 0.077808 -0.848668
2005-01-28 08:40:31 51°19.472 2°47.758 12.4776 0.014948 0.077806 -0.882377
2005-01-28 08:40:36 51°19.483 2°47.73 12.4835 0.014948 0.077808 -0.882377
2005-01-28 08:40:41 51°19.493 2°47.707 12.4833 0.014948 0.077808 -0.882377
2005-01-28 08:40:46 51°19.503 2°47.68 12.4826 0.014948 0.077805 -0.882377
2005-01-28 08:40:51 51°19.513 2°47.654 12.4843 0.014948 0.077808 -0.882377
2005-01-28 08:40:56 51°19.523 2°47.63 12.4872 0.015052 0.078315 -0.848668
2005-01-28 08:41:00 51°19.532 2°47.606 12.4881 0.014948 0.077808 -0.848668
2005-01-28 08:41:06 51°19.542 2°47.576 12.4888 0.014948 0.077807 -0.882377
2005-01-28 08:41:11 51°19.552 2°47.551 12.4929 0.014948 0.077807 -0.882377
2005-01-28 08:41:16 51°19.563 2°47.523 12.4951 0.014948 0.077806 -0.882377
2005-01-28 08:41:21 51°19.572 2°47.501 12.4963 0.014948 0.077806 -0.848668
2005-01-28 08:41:26 51°19.58 2°47.473 12.4997 0.014948 0.077813 -0.882377
2005-01-28 08:41:31 51°19.586 2°47.448 12.497 0.014948 0.077812 -0.882377
2005-01-28 08:41:36 51°19.594 2°47.415 12.4976 0.014948 0.077816 -0.848668
2005-01-28 08:41:41 51°19.602 2°47.387 12.5034 0.014948 0.077816 -0.848668
2005-01-28 08:41:46 51°19.608 2°47.361 12.5045 0.014948 0.077814 -0.882377
2005-01-28 08:41:51 51°19.615 2°47.335 12.5033 0.014948 0.077813 -0.848668
2005-01-28 08:41:56 51°19.623 2°47.302 12.5064 0.014948 0.077813 -0.882377
2005-01-28 08:42:01 51°19.63 2°47.275 12.5104 0.014948 0.077814 -0.848668
2005-01-28 08:42:06 51°19.637 2°47.248 12.5121 0.014948 0.077812 -0.848668
2005-01-28 08:42:11 51°19.643 2°47.217 12.5107 0.014948 0.077812 -0.848668
2005-01-28 08:42:16 51°19.649 2°47.19 12.5137 0.015052 0.078319 -0.882377
2005-01-28 08:42:21 51°19.656 2°47.162 12.5157 0.014948 0.077811 -0.848668
2005-01-28 08:42:26 51°19.662 2°47.136 12.517 0.014948 0.077812 -0.848668
2005-01-28 08:42:31 51°19.668 2°47.108 12.5185 0.014948 0.07781 -0.882377
2005-01-28 08:42:36 51°19.675 2°47.076 12.5215 0.014948 0.077812 -0.882377
2005-01-28 08:42:41 51°19.682 2°47.05 12.5238 0.014948 0.077812 -0.882377
2005-01-28 08:42:46 51°19.689 2°47.019 12.5242 0.014948 0.077811 -0.882377
2005-01-28 08:42:51 51°19.695 2°46.994 12.5282 0.014948 0.077814 -0.848668
2005-01-28 08:42:56 51°19.702 2°46.964 12.5272 0.014948 0.077815 -0.848668
2005-01-28 08:43:00 51°19.708 2°46.937 12.5304 0.014948 0.077813 -0.814958
2005-01-28 08:43:06 51°19.716 2°46.906 12.5305 0.014948 0.077819 -0.848668
2005-01-28 08:43:11 51°19.723 2°46.879 12.5337 0.014948 0.077819 -0.848668
2005-01-28 08:43:16 51°19.729 2°46.851 12.5344 0.014948 0.077816 -0.848668
2005-01-28 08:43:21 51°19.736 2°46.82 12.5385 0.014948 0.077816 -0.882377
2005-01-28 08:43:26 51°19.743 2°46.794 12.5388 0.014948 0.077812 -0.882377
2005-01-28 08:43:30 51°19.748 2°46.772 12.5403 0.014948 0.077811 -0.882377
2005-01-28 08:43:36 51°19.757 2°46.734 12.5427 0.014948 0.077813 -0.848668
2005-01-28 08:43:41 51°19.763 2°46.708 12.5438 0.014948 0.077813 -0.848668
2005-01-28 08:43:46 51°19.77 2°46.677 12.5492 0.014948 0.077816 -0.848668
2005-01-28 08:43:51 51°19.776 2°46.653 12.5491 0.014948 0.077811 -0.848668
2005-01-28 08:43:56 51°19.782 2°46.623 12.5516 0.014948 0.077816 -0.882377
2005-01-28 08:44:01 51°19.788 2°46.598 12.5521 0.015052 0.07833 -0.882377
2005-01-28 08:44:06 51°19.795 2°46.568 12.5547 0.014948 0.077818 -0.882377
2005-01-28 08:44:10 51°19.8 2°46.546 12.556 0.014948 0.077818 -0.882377
2005-01-28 08:44:15 51°19.808 2°46.515 12.5563 0.014948 0.077819 -0.882377
2005-01-28 08:44:21 51°19.815 2°46.481 12.5596 0.014948 0.077818 -0.848668
2005-01-28 08:44:26 51°19.822 2°46.457 12.5613 0.014948 0.077818 -0.848668
2005-01-28 08:44:31 51°19.828 2°46.428 12.5626 0.014948 0.077814 -0.848668
2005-01-28 08:44:36 51°19.835 2°46.4 12.565 0.014948 0.077815 -0.848668
2005-01-28 08:44:41 51°19.842 2°46.371 12.5681 0.014948 0.077815 -0.848668
2005-01-28 08:44:46 51°19.848 2°46.344 12.5691 0.014948 0.077813 -0.848668
2005-01-28 08:44:51 51°19.856 2°46.31 12.5711 0.014948 0.077815 -0.848668
2005-01-28 08:44:56 51°19.863 2°46.282 12.5728 0.014948 0.077813 -0.882377
2005-01-28 08:45:00 51°19.868 2°46.261 12.5742 0.014948 0.077817 -0.882377
2005-01-28 08:45:06 51°19.875 2°46.229 12.5753 0.015052 0.078326 -0.848668
2005-01-28 08:45:11 51°19.884 2°46.198 12.5795 0.015052 0.078326 -0.848668
2005-01-28 08:45:16 51°19.89 2°46.175 12.5798 0.014948 0.077813 -0.882377
2005-01-28 08:45:21 51°19.896 2°46.144 12.5837 0.014948 0.077815 -0.848668
2005-01-28 08:45:25 51°19.901 2°46.122 12.5833 0.014948 0.077811 -0.814958
2005-01-28 08:45:31 51°19.91 2°46.086 12.5872 0.014948 0.077812 -0.882377
2005-01-28 08:45:36 51°19.917 2°46.059 12.5892 0.014948 0.077811 -0.848668
2005-01-28 08:45:41 51°19.924 2°46.033 12.5911 0.014948 0.077811 -0.848668
2005-01-28 08:45:46 51°19.931 2°46.002 12.5934 0.014948 0.077812 -0.848668
2005-01-28 08:45:50 51°19.936 2°45.978 12.5966 0.015052 0.07832 -0.882377
2005-01-28 08:45:56 51°19.944 2°45.949 12.5977 0.014948 0.077813 -0.848668
2005-01-28 08:46:01 51°19.951 2°45.918 12.6007 0.014948 0.077811 -0.848668
2005-01-28 08:46:06 51°19.959 2°45.889 12.6023 0.014948 0.077812 -0.848668
2005-01-28 08:46:11 51°19.964 2°45.865 12.6046 0.014948 0.077812 -0.848668
2005-01-28 08:46:16 51°19.972 2°45.835 12.6068 0.014948 0.07781 -0.882377
2005-01-28 08:46:21 51°19.979 2°45.807 12.6086 0.014948 0.077813 -0.814958
2005-01-28 08:46:26 51°19.986 2°45.778 12.6095 0.014948 0.077812 -0.882377
2005-01-28 08:46:30 51°19.992 2°45.757 12.6119 0.014948 0.077814 -0.848668
2005-01-28 08:46:36 51°20.002 2°45.723 12.614 0.014948 0.077814 -0.882377
2005-01-28 08:46:40 51°20.007 2°45.697 12.6155 0.014948 0.077814 -0.882377
2005-01-28 08:46:46 51°20.015 2°45.667 12.6171 0.014948 0.077816 -0.882377
2005-01-28 08:46:51 51°20.023 2°45.633 12.6197 0.014948 0.077813 -0.848668
2005-01-28 08:46:56 51°20.029 2°45.607 12.6222 0.014948 0.077812 -0.848668
2005-01-28 08:47:01 51°20.035 2°45.581 12.6258 0.014948 0.077814 -0.882377
2005-01-28 08:47:06 51°20.042 2°45.547 12.6284 0.014948 0.077818 -0.882377
2005-01-28 08:47:11 51°20.049 2°45.521 12.6301 0.014948 0.077818 -0.882377
2005-01-28 08:47:16 51°20.056 2°45.492 12.6311 0.014948 0.077811 -0.882377
2005-01-28 08:47:21 51°20.063 2°45.466 12.6328 0.014948 0.077814 -0.882377
2005-01-28 08:47:26 51°20.07 2°45.438 12.6357 0.014948 0.077816 -0.848668
2005-01-28 08:47:30 51°20.075 2°45.417 12.6382 0.014948 0.077815 -0.882377
2005-01-28 08:47:36 51°20.084 2°45.378 12.6412 0.014948 0.077811 -0.848668
2005-01-28 08:47:41 51°20.091 2°45.353 12.6427 0.014948 0.077811 -0.848668
2005-01-28 08:47:46 51°20.097 2°45.327 12.6442 0.014948 0.077816 -0.882377
2005-01-28 08:47:51 51°20.103 2°45.3 12.6506 0.014948 0.07782 -0.848668
2005-01-28 08:47:56 51°20.11 2°45.267 12.65 0.015052 0.078327 -0.882377
2005-01-28 08:48:01 51°20.118 2°45.24 12.6507 0.015052 0.078332 -0.848668
2005-01-28 08:48:06 51°20.124 2°45.214 12.6538 0.014948 0.07782 -0.882377
2005-01-28 08:48:11 51°20.13 2°45.188 12.6575 0.014948 0.07782 -0.882377
2005-01-28 08:48:16 51°20.138 2°45.156 12.6582 0.014948 0.077824 -0.848668
2005-01-28 08:48:21 51°20.145 2°45.128 12.6599 0.014948 0.077821 -0.814958
2005-01-28 08:48:26 51°20.151 2°45.101 12.6611 0.014948 0.077822 -0.848668
2005-01-28 08:48:30 51°20.155 2°45.077 12.6648 0.014948 0.07782 -0.848668
2005-01-28 08:48:36 51°20.16 2°45.038 12.6657 0.014948 0.077823 -0.848668
2005-01-28 08:48:40 51°20.163 2°45.013 12.6703 0.014948 0.077823 -0.848668
2005-01-28 08:48:46 51°20.166 2°44.978 12.6704 0.014948 0.07782 -0.848668
2005-01-28 08:48:51 51°20.169 2°44.948 12.6737 0.014948 0.077821 -0.848668
2005-01-28 08:48:56 51°20.172 2°44.916 12.6732 0.014948 0.077818 -0.848668
2005-01-28 08:49:01 51°20.174 2°44.885 12.6768 0.014948 0.077818 -0.848668
2005-01-28 08:49:06 51°20.177 2°44.853 12.6774 0.014948 0.07782 -0.848668
2005-01-28 08:49:11 51°20.18 2°44.819 12.6795 0.014948 0.07782 -0.848668
2005-01-28 08:49:16 51°20.182 2°44.79 12.6806 0.014948 0.077819 -0.848668
2005-01-28 08:49:21 51°20.185 2°44.759 12.6841 0.014948 0.077821 -0.848668
2005-01-28 08:49:26 51°20.188 2°44.729 12.6859 0.014948 0.077821 -0.848668
2005-01-28 08:49:31 51°20.191 2°44.7 12.6902 0.014948 0.077812 -0.882377
2005-01-28 08:49:36 51°20.194 2°44.665 12.6905 0.014948 0.077812 -0.848668
2005-01-28 08:49:41 51°20.196 2°44.635 12.6959 0.014948 0.077812 -0.848668
2005-01-28 08:49:45 51°20.199 2°44.605 12.6953 0.014948 0.07782 -0.848668
2005-01-28 08:49:51 51°20.201 2°44.571 12.7013 0.014948 0.077836 -0.848668
2005-01-28 08:49:56 51°20.204 2°44.538 12.7007 0.014948 0.077827 -0.814958
2005-01-28 08:50:01 51°20.206 2°44.509 12.705 0.014948 0.077825 -0.848668
2005-01-28 08:50:06 51°20.209 2°44.476 12.7055 0.014948 0.077827 -0.882377
2005-01-28 08:50:11 51°20.211 2°44.441 12.7068 0.014948 0.077827 -0.882377
2005-01-28 08:50:16 51°20.214 2°44.41 12.7072 0.014948 0.077824 -0.882377
2005-01-28 08:50:20 51°20.215 2°44.385 12.714 0.014948 0.077823 -0.882377
2005-01-28 08:50:26 51°20.218 2°44.35 12.7136 0.014948 0.077822 -0.848668
2005-01-28 08:50:31 51°20.22 2°44.318 12.7147 0.014948 0.077822 -0.882377
2005-01-28 08:50:36 51°20.222 2°44.286 12.7173 0.014948 0.077824 -0.848668
2005-01-28 08:50:41 51°20.225 2°44.254 12.72 0.014948 0.077824 -0.848668
2005-01-28 08:50:46 51°20.228 2°44.223 12.7203 0.014948 0.077823 -0.882377
2005-01-28 08:50:50 51°20.23 2°44.199 12.7227 0.014948 0.077824 -0.882377
2005-01-28 08:50:56 51°20.233 2°44.16 12.7247 0.014948 0.077825 -0.882377
2005-01-28 08:51:01 51°20.236 2°44.131 12.7289 0.014948 0.077826 -0.848668
2005-01-28 08:51:06 51°20.24 2°44.099 12.7294 0.014948 0.077824 -0.882377
2005-01-28 08:51:11 51°20.241 2°44.066 12.7336 0.014948 0.077824 -0.882377
2005-01-28 08:51:16 51°20.244 2°44.037 12.7366 0.014948 0.077825 -0.848668
2005-01-28 08:51:20 51°20.247 2°44.009 12.7358 0.014948 0.077819 -0.848668
2005-01-28 08:51:26 51°20.249 2°43.974 12.7386 0.014948 0.077814 -0.848668
2005-01-28 08:51:31 51°20.252 2°43.943 12.7417 0.014948 0.077824 -0.848668
2005-01-28 08:51:36 51°20.254 2°43.909 12.7418 0.014948 0.077817 -0.848668
2005-01-28 08:51:40 51°20.257 2°43.884 12.7437 0.014948 0.077817 -0.848668
2005-01-28 08:51:46 51°20.259 2°43.851 12.7482 0.014948 0.077817 -0.882377
2005-01-28 08:51:51 51°20.262 2°43.822 12.7474 0.014948 0.077823 -0.882377
2005-01-28 08:51:56 51°20.264 2°43.788 12.7527 0.014948 0.077821 -0.848668
2005-01-28 08:52:01 51°20.267 2°43.757 12.7516 0.015052 0.078335 -0.848668
2005-01-28 08:52:05 51°20.269 2°43.728 12.7567 0.014948 0.077828 -0.848668
2005-01-28 08:52:10 51°20.272 2°43.701 12.7587 0.014948 0.077828 -0.848668
2005-01-28 08:52:16 51°20.275 2°43.66 12.7584 0.014948 0.077826 -0.882377
2005-01-28 08:52:21 51°20.278 2°43.632 12.7594 0.014948 0.077825 -0.848668
2005-01-28 08:52:26 51°20.28 2°43.602 12.7633 0.014948 0.077832 -0.882377
2005-01-28 08:52:31 51°20.282 2°43.573 12.7698 0.014948 0.077827 -0.882377
2005-01-28 08:52:36 51°20.285 2°43.538 12.7639 0.014948 0.07783 -0.848668
2005-01-28 08:52:41 51°20.287 2°43.504 12.7706 0.014948 0.07783 -0.848668
2005-01-28 08:52:46 51°20.289 2°43.476 12.7687 0.014948 0.077826 -0.848668
2005-01-28 08:52:51 51°20.292 2°43.449 12.7747 0.014948 0.077822 -0.848668
2005-01-28 08:52:56 51°20.295 2°43.414 12.7738 0.014948 0.077829 -0.848668
2005-01-28 08:53:01 51°20.298 2°43.383 12.7751 0.014948 0.07783 -0.848668
2005-01-28 08:53:06 51°20.3 2°43.353 12.7796 0.014948 0.077831 -0.814958
2005-01-28 08:53:11 51°20.303 2°43.323 12.7799 0.014948 0.077831 -0.814958
2005-01-28 08:53:16 51°20.306 2°43.29 12.7831 0.014948 0.077831 -0.882377
2005-01-28 08:53:21 51°20.309 2°43.259 12.784 0.014948 0.077831 -0.882377
2005-01-28 08:53:26 51°20.312 2°43.228 12.7836 0.014948 0.077823 -0.848668
2005-01-28 08:53:31 51°20.313 2°43.198 12.7899 0.014948 0.077823 -0.882377
2005-01-28 08:53:36 51°20.316 2°43.162 12.7879 0.014948 0.077825 -0.882377
2005-01-28 08:53:41 51°20.319 2°43.134 12.7916 0.014948 0.077825 -0.882377
2005-01-28 08:53:46 51°20.322 2°43.104 12.7918 0.014948 0.077835 -0.848668
2005-01-28 08:53:51 51°20.324 2°43.069 12.8024 0.014948 0.07784 -0.814958
2005-01-28 08:53:56 51°20.328 2°43.037 12.7972 0.014948 0.077843 -0.882377
2005-01-28 08:54:00 51°20.329 2°43.012 12.8015 0.014948 0.077839 -0.848668
2005-01-28 08:54:06 51°20.332 2°42.98 12.8011 0.014948 0.077831 -0.882377
2005-01-28 08:54:11 51°20.335 2°42.952 12.8057 0.014948 0.077831 -0.882377
2005-01-28 08:54:16 51°20.338 2°42.919 12.8061 0.014948 0.077834 -0.882377
2005-01-28 08:54:21 51°20.341 2°42.888 12.809 0.014948 0.077836 -0.882377
2005-01-28 08:54:26 51°20.344 2°42.859 12.8105 0.014948 0.077844 -0.882377
2005-01-28 08:54:31 51°20.347 2°42.829 12.8182 0.014948 0.077839 -0.848668
2005-01-28 08:54:36 51°20.35 2°42.794 12.8202 0.014948 0.077851 -0.848668
2005-01-28 08:54:41 51°20.353 2°42.764 12.8195 0.014948 0.077851 -0.848668
2005-01-28 08:54:46 51°20.356 2°42.735 12.8209 0.014948 0.077842 -0.848668
2005-01-28 08:54:51 51°20.358 2°42.7 12.8233 0.014948 0.077846 -0.848668
2005-01-28 08:54:56 51°20.361 2°42.672 12.8282 0.014948 0.077849 -0.848668
2005-01-28 08:55:00 51°20.364 2°42.644 12.8271 0.014948 0.077844 -0.848668
2005-01-28 08:55:06 51°20.367 2°42.612 12.8276 0.014948 0.077842 -0.882377
2005-01-28 08:55:11 51°20.369 2°42.581 12.8322 0.014948 0.077842 -0.882377
2005-01-28 08:55:16 51°20.372 2°42.549 12.8369 0.014948 0.077843 -0.882377
2005-01-28 08:55:21 51°20.375 2°42.517 12.8377 0.014948 0.077851 -0.848668
2005-01-28 08:55:26 51°20.378 2°42.486 12.8441 0.014948 0.077852 -0.848668
2005-01-28 08:55:31 51°20.381 2°42.458 12.8433 0.014948 0.077856 -0.814958
2005-01-28 08:55:36 51°20.383 2°42.422 12.8427 0.014948 0.077849 -0.848668
2005-01-28 08:55:41 51°20.387 2°42.389 12.8448 0.014948 0.077849 -0.848668
2005-01-28 08:55:46 51°20.388 2°42.361 12.8469 0.014948 0.077845 -0.882377
2005-01-28 08:55:50 51°20.391 2°42.336 12.85 0.014948 0.077846 -0.848668
2005-01-28 08:55:56 51°20.394 2°42.299 12.8481 0.014948 0.07785 -0.848668
2005-01-28 08:56:00 51°20.397 2°42.27 12.8553 0.014948 0.077848 -0.882377
2005-01-28 08:56:06 51°20.401 2°42.238 12.857 0.014948 0.077847 -0.848668
2005-01-28 08:56:11 51°20.403 2°42.204 12.853 0.014948 0.077847 -0.848668
2005-01-28 08:56:16 51°20.404 2°42.177 12.8606 0.014948 0.077854 -0.848668
2005-01-28 08:56:21 51°20.406 2°42.144 12.8622 0.014948 0.077858 -0.848668
2005-01-28 08:56:27 51°20.409 2°42.109 12.868 0.014948 0.077852 -0.848668
2005-01-28 08:56:31 51°20.411 2°42.083 12.8678 0.014948 0.077851 -0.882377
2005-01-28 08:56:36 51°20.415 2°42.049 12.8665 0.014948 0.077851 -0.882377
2005-01-28 08:56:41 51°20.417 2°42.019 12.8707 0.014948 0.077851 -0.882377
2005-01-28 08:56:46 51°20.421 2°41.987 12.8734 0.015052 0.078358 -0.882377
2005-01-28 08:56:51 51°20.424 2°41.955 12.8734 0.014948 0.077846 -0.882377
2005-01-28 08:56:56 51°20.427 2°41.926 12.8744 0.014948 0.077843 -0.882377
2005-01-28 08:57:01 51°20.43 2°41.893 12.8767 0.014948 0.077845 -0.848668
2005-01-28 08:57:06 51°20.433 2°41.863 12.8791 0.014948 0.077847 -0.848668
2005-01-28 08:57:10 51°20.435 2°41.839 12.8853 0.014948 0.077847 -0.848668
2005-01-28 08:57:16 51°20.438 2°41.799 12.8876 0.014948 0.077848 -0.848668
2005-01-28 08:57:21 51°20.441 2°41.769 12.8853 0.014948 0.077847 -0.882377
2005-01-28 08:57:26 51°20.444 2°41.737 12.8959 0.014948 0.077848 -0.848668
2005-01-28 08:57:31 51°20.449 2°41.706 12.8929 0.014948 0.07785 -0.848668
2005-01-28 08:57:36 51°20.451 2°41.672 12.8942 0.014948 0.077856 -0.882377
2005-01-28 08:57:40 51°20.454 2°41.647 12.8968 0.014948 0.077856 -0.882377
2005-01-28 08:57:45 51°20.456 2°41.616 12.8982 0.014948 0.077885 -0.882377
2005-01-28 08:57:51 51°20.459 2°41.582 12.9013 0.014948 0.077874 -0.848668
2005-01-28 08:57:56 51°20.463 2°41.55 12.8968 0.014948 0.07787 -0.848668
2005-01-28 08:58:01 51°20.465 2°41.521 12.9033 0.014948 0.077867 -0.882377
2005-01-28 08:58:06 51°20.468 2°41.488 12.9061 0.014948 0.077853 -0.848668
2005-01-28 08:58:11 51°20.472 2°41.454 12.9101 0.014948 0.077853 -0.848668
2005-01-28 08:58:16 51°20.475 2°41.426 12.9066 0.014948 0.077843 -0.848668
2005-01-28 08:58:21 51°20.479 2°41.397 12.9116 0.014948 0.077847 -0.848668
2005-01-28 08:58:26 51°20.481 2°41.362 12.9108 0.014948 0.077851 -0.848668
2005-01-28 08:58:31 51°20.483 2°41.33 12.9183 0.014948 0.077854 -0.882377
2005-01-28 08:58:36 51°20.487 2°41.302 12.9186 0.014948 0.077857 -0.848668
2005-01-28 08:58:41 51°20.49 2°41.27 12.9146 0.014948 0.077857 -0.848668
2005-01-28 08:58:45 51°20.492 2°41.246 12.9209 0.014948 0.07786 -0.848668
2005-01-28 08:58:51 51°20.494 2°41.211 12.9223 0.014948 0.077863 -0.882377
2005-01-28 08:58:56 51°20.497 2°41.176 12.9241 0.014948 0.077859 -0.882377
2005-01-28 08:59:01 51°20.5 2°41.148 12.9268 0.014948 0.077862 -0.882377
2005-01-28 08:59:06 51°20.503 2°41.117 12.9252 0.014948 0.077858 -0.882377
2005-01-28 08:59:11 51°20.505 2°41.087 12.9306 0.014948 0.077858 -0.882377
2005-01-28 08:59:16 51°20.508 2°41.051 12.9305 0.014948 0.077861 -0.882377
2005-01-28 08:59:21 51°20.511 2°41.021 12.9337 0.014948 0.077862 -0.882377
2005-01-28 08:59:26 51°20.514 2°40.992 12.9344 0.014948 0.077862 -0.882377
2005-01-28 08:59:31 51°20.516 2°40.956 12.9432 0.014948 0.07786 -0.848668
2005-01-28 08:59:36 51°20.518 2°40.929 12.9481 0.014948 0.077854 -0.848668
2005-01-28 08:59:40 51°20.52 2°40.9 12.9427 0.014948 0.077854 -0.848668
2005-01-28 08:59:46 51°20.523 2°40.864 12.9465 0.014948 0.07786 -0.848668
2005-01-28 08:59:51 51°20.526 2°40.835 12.9534 0.014948 0.077859 -0.848668
2005-01-28 08:59:56 51°20.528 2°40.803 12.9527 0.014948 0.077864 -0.848668
2005-01-28 09:00:01 51°20.53 2°40.771 12.9543 0.014948 0.077864 -0.882377
2005-01-28 09:00:06 51°20.533 2°40.741 12.9586 0.014948 0.077866 -0.848668
2005-01-28 09:00:11 51°20.536 2°40.712 12.9573 0.014948 0.077866 -0.848668
2005-01-28 09:00:16 51°20.539 2°40.679 12.959 0.014948 0.077868 -0.882377
2005-01-28 09:00:21 51°20.542 2°40.647 12.9604 0.014948 0.077868 -0.882377
2005-01-28 09:00:25 51°20.544 2°40.62 12.9609 0.014948 0.077869 -0.848668
2005-01-28 09:00:31 51°20.546 2°40.583 12.9663 0.014948 0.077867 -0.848668
2005-01-28 09:00:36 51°20.55 2°40.554 12.968 0.014948 0.077866 -0.848668
2005-01-28 09:00:40 51°20.553 2°40.525 12.9679 0.014948 0.077866 -0.848668
2005-01-28 09:00:46 51°20.556 2°40.49 12.9677 0.014948 0.077851 -0.882377
2005-01-28 09:00:51 51°20.559 2°40.459 12.9743 0.014948 0.077852 -0.848668
2005-01-28 09:00:56 51°20.562 2°40.428 12.9718 0.014948 0.07786 -0.882377
2005-01-28 09:01:01 51°20.565 2°40.397 12.9718 0.014948 0.077858 -0.882377
2005-01-28 09:01:06 51°20.568 2°40.366 12.9739 0.014948 0.077862 -0.882377
2005-01-28 09:01:11 51°20.571 2°40.334 12.9767 0.014948 0.077862 -0.882377
2005-01-28 09:01:16 51°20.574 2°40.3 12.9776 0.014948 0.077861 -0.882377
2005-01-28 09:01:21 51°20.576 2°40.272 12.9818 0.014948 0.077867 -0.848668
2005-01-28 09:01:26 51°20.579 2°40.242 12.9858 0.014948 0.077866 -0.848668
2005-01-28 09:01:30 51°20.58 2°40.216 12.9847 0.014948 0.077866 -0.882377
2005-01-28 09:01:36 51°20.584 2°40.175 12.9894 0.014948 0.077871 -0.848668
2005-01-28 09:01:41 51°20.586 2°40.147 12.993 0.014948 0.077871 -0.848668
2005-01-28 09:01:46 51°20.589 2°40.114 12.9918 0.014948 0.077868 -0.848668
2005-01-28 09:01:51 51°20.593 2°40.089 12.9951 0.014948 0.077866 -0.848668
2005-01-28 09:01:56 51°20.596 2°40.052 12.9935 0.014948 0.077868 -0.882377
2005-01-28 09:02:00 51°20.598 2°40.027 12.9985 0.014948 0.077868 -0.848668
2005-01-28 09:02:06 51°20.601 2°39.992 12.9984 0.014948 0.077871 -0.882377
2005-01-28 09:02:11 51°20.604 2°39.964 13.0016 0.014948 0.077871 -0.882377
2005-01-28 09:02:16 51°20.606 2°39.93 13.002 0.014948 0.077872 -0.882377
2005-01-28 09:02:21 51°20.608 2°39.899 13.0096 0.014948 0.077874 -0.848668
2005-01-28 09:02:26 51°20.612 2°39.866 13.005 0.014948 0.077886 -0.848668
2005-01-28 09:02:31 51°20.613 2°39.837 13.0083 0.014948 0.077881 -0.882377
2005-01-28 09:02:36 51°20.616 2°39.805 13.0137 0.014948 0.077875 -0.848668
2005-01-28 09:02:41 51°20.619 2°39.773 13.0114 0.014948 0.077875 -0.848668
2005-01-28 09:02:46 51°20.622 2°39.742 13.0174 0.014948 0.077877 -0.848668
2005-01-28 09:02:51 51°20.626 2°39.711 13.0142 0.014948 0.07788 -0.882377
2005-01-28 09:02:56 51°20.629 2°39.68 13.0153 0.014948 0.07788 -0.882377
2005-01-28 09:03:01 51°20.631 2°39.65 13.0176 0.014948 0.077881 -0.882377
2005-01-28 09:03:06 51°20.634 2°39.619 13.0237 0.014948 0.077877 -0.882377
2005-01-28 09:03:11 51°20.637 2°39.585 13.0216 0.014948 0.077877 -0.882377
2005-01-28 09:03:16 51°20.639 2°39.557 13.0255 0.014948 0.077878 -0.882377
2005-01-28 09:03:21 51°20.641 2°39.525 13.027 0.014948 0.077878 -0.848668
2005-01-28 09:03:26 51°20.645 2°39.494 13.0299 0.014948 0.077877 -0.848668
2005-01-28 09:03:31 51°20.647 2°39.462 13.0283 0.014948 0.07788 -0.848668
2005-01-28 09:03:36 51°20.649 2°39.43 13.03 0.014948 0.077877 -0.814958
2005-01-28 09:03:40 51°20.652 2°39.405 13.0321 0.014948 0.077877 -0.814958
2005-01-28 09:03:46 51°20.655 2°39.37 13.0348 0.014948 0.077879 -0.882377
2005-01-28 09:03:50 51°20.656 2°39.345 13.0378 0.014948 0.07788 -0.848668
2005-01-28 09:03:56 51°20.66 2°39.306 13.0426 0.014948 0.07788 -0.882377
2005-01-28 09:04:01 51°20.662 2°39.278 13.0401 0.014948 0.077881 -0.882377
2005-01-28 09:04:06 51°20.664 2°39.246 13.0437 0.014948 0.077874 -0.882377
2005-01-28 09:04:11 51°20.666 2°39.216 13.0435 0.014948 0.077874 -0.882377
2005-01-28 09:04:16 51°20.667 2°39.182 13.0489 0.014948 0.077877 -0.882377
2005-01-28 09:04:21 51°20.669 2°39.153 13.0486 0.014948 0.077883 -0.882377
2005-01-28 09:04:26 51°20.67 2°39.123 13.0515 0.014948 0.077879 -0.848668
2005-01-28 09:04:31 51°20.674 2°39.093 13.0532 0.014948 0.07788 -0.848668
2005-01-28 09:04:36 51°20.677 2°39.06 13.0544 0.014948 0.077883 -0.882377
2005-01-28 09:04:41 51°20.679 2°39.032 13.0549 0.014948 0.077883 -0.882377
2005-01-28 09:04:46 51°20.682 2°38.999 13.058 0.014948 0.077884 -0.848668
2005-01-28 09:04:51 51°20.684 2°38.971 13.0583 0.014948 0.077886 -0.848668
2005-01-28 09:04:56 51°20.687 2°38.939 13.0635 0.014948 0.077887 -0.848668
2005-01-28 09:05:00 51°20.69 2°38.91 13.0638 0.014948 0.077886 -0.848668
2005-01-28 09:05:06 51°20.692 2°38.876 13.0685 0.014948 0.077889 -0.848668
2005-01-28 09:05:11 51°20.696 2°38.844 13.066 0.014948 0.077889 -0.848668
2005-01-28 09:05:16 51°20.698 2°38.811 13.0685 0.014948 0.077882 -0.848668
2005-01-28 09:05:21 51°20.701 2°38.783 13.0693 0.014948 0.077886 -0.848668
2005-01-28 09:05:26 51°20.703 2°38.752 13.0719 0.014948 0.077888 -0.882377
2005-01-28 09:05:31 51°20.706 2°38.722 13.0727 0.014948 0.077888 -0.882377
2005-01-28 09:05:36 51°20.709 2°38.689 13.0739 0.014948 0.077887 -0.882377
2005-01-28 09:05:40 51°20.712 2°38.661 13.077 0.014948 0.077887 -0.882377
2005-01-28 09:05:46 51°20.716 2°38.627 13.0776 0.014948 0.077886 -0.882377
2005-01-28 09:05:51 51°20.718 2°38.595 13.078 0.014948 0.077891 -0.848668
2005-01-28 09:05:56 51°20.72 2°38.565 13.0822 0.014948 0.077891 -0.848668
2005-01-28 09:06:01 51°20.722 2°38.535 13.0863 0.014948 0.077888 -0.848668
2005-01-28 09:06:06 51°20.725 2°38.501 13.0859 0.014948 0.077897 -0.848668
2005-01-28 09:06:11 51°20.729 2°38.471 13.0874 0.014948 0.077897 -0.848668
2005-01-28 09:06:16 51°20.73 2°38.441 13.0911 0.014948 0.077893 -0.882377
2005-01-28 09:06:20 51°20.733 2°38.412 13.0904 0.014948 0.077894 -0.882377
2005-01-28 09:06:26 51°20.736 2°38.38 13.0927 0.014948 0.077892 -0.848668
2005-01-28 09:06:31 51°20.738 2°38.348 13.0948 0.014948 0.077892 -0.848668
2005-01-28 09:06:36 51°20.741 2°38.316 13.0974 0.014948 0.077892 -0.882377
2005-01-28 09:06:41 51°20.743 2°38.287 13.0979 0.014948 0.077892 -0.882377
2005-01-28 09:06:46 51°20.746 2°38.256 13.0997 0.014948 0.077896 -0.848668
2005-01-28 09:06:51 51°20.749 2°38.222 13.1024 0.014948 0.07789 -0.882377
2005-01-28 09:06:56 51°20.752 2°38.191 13.1034 0.014948 0.077883 -0.882377
2005-01-28 09:07:01 51°20.754 2°38.163 13.1063 0.014948 0.077895 -0.848668
2005-01-28 09:07:06 51°20.757 2°38.13 13.1072 0.014948 0.077896 -0.848668
2005-01-28 09:07:11 51°20.759 2°38.1 13.109 0.014948 0.077896 -0.848668
2005-01-28 09:07:16 51°20.762 2°38.072 13.1101 0.014948 0.077904 -0.848668
2005-01-28 09:07:21 51°20.764 2°38.039 13.1124 0.014948 0.077905 -0.848668
2005-01-28 09:07:26 51°20.768 2°38.009 13.1147 0.014948 0.077904 -0.848668
2005-01-28 09:07:30 51°20.769 2°37.983 13.1164 0.014948 0.077899 -0.882377
2005-01-28 09:07:36 51°20.774 2°37.946 13.117 0.015052 0.078409 -0.882377
2005-01-28 09:07:40 51°20.776 2°37.918 13.1194 0.015052 0.078409 -0.882377
2005-01-28 09:07:46 51°20.779 2°37.885 13.1207 0.014948 0.077901 -0.848668
2005-01-28 09:07:51 51°20.783 2°37.854 13.1231 0.014948 0.077901 -0.848668
2005-01-28 09:07:56 51°20.785 2°37.823 13.126 0.014948 0.0779 -0.848668